<?xml version="1.0" encoding="UTF-8" standalone="no" ?>
<gpx xmlns="http://www.topografix.com/GPX/1/1" xmlns:xsi="http://www.w3.org/2001/XMLSchema-instance" xsi:schemaLocation="http://www.topografix.com/GPX/1/1 http://www.topografix.com/GPX/1/1/gpx.xsd" version="1.1" creator="VisuGPX - https://www.visugpx.com">
  <metadata>
    <name>83-M-Claviers</name>
    <desc><![CDATA[83-M-Claviers : le bois de l\'Ubac
mercredi 21-mars 2012]]></desc>
  </metadata>
  <trk>
    <name><![CDATA[2012-03-21-claviers]]></name>
    <trkseg>
      <trkpt lat="43.60231" lon="6.56619">
        <ele>427.082733</ele>
        <time>2012-03-21T13:23:25Z</time>
      </trkpt>
      <trkpt lat="43.60226" lon="6.56609">
        <ele>424.25711</ele>
        <time>2012-03-21T13:24:10Z</time>
      </trkpt>
      <trkpt lat="43.60226" lon="6.56608">
        <ele>424.094726</ele>
        <time>2012-03-21T13:24:11Z</time>
      </trkpt>
      <trkpt lat="43.60221" lon="6.56616">
        <ele>424.9</ele>
        <time>2012-03-21T13:26:45Z</time>
      </trkpt>
      <trkpt lat="43.6022" lon="6.56616">
        <ele>425.3</ele>
        <time>2012-03-21T13:26:46Z</time>
      </trkpt>
      <trkpt lat="43.60208" lon="6.56629">
        <ele>427.6</ele>
        <time>2012-03-21T13:27:02Z</time>
      </trkpt>
      <trkpt lat="43.60205" lon="6.5664">
        <ele>428.7</ele>
        <time>2012-03-21T13:27:10Z</time>
      </trkpt>
      <trkpt lat="43.60205" lon="6.56652">
        <ele>429.9</ele>
        <time>2012-03-21T13:27:20Z</time>
      </trkpt>
      <trkpt lat="43.60203" lon="6.56664">
        <ele>430.6</ele>
        <time>2012-03-21T13:27:29Z</time>
      </trkpt>
      <trkpt lat="43.60199" lon="6.56673">
        <ele>430.6</ele>
        <time>2012-03-21T13:27:36Z</time>
      </trkpt>
      <trkpt lat="43.60194" lon="6.56683">
        <ele>431.2</ele>
        <time>2012-03-21T13:27:44Z</time>
      </trkpt>
      <trkpt lat="43.6019" lon="6.56694">
        <ele>433.2</ele>
        <time>2012-03-21T13:27:52Z</time>
      </trkpt>
      <trkpt lat="43.6019" lon="6.56696">
        <ele>433.9</ele>
        <time>2012-03-21T13:27:53Z</time>
      </trkpt>
      <trkpt lat="43.60186" lon="6.56717">
        <ele>435.6</ele>
        <time>2012-03-21T13:28:07Z</time>
      </trkpt>
      <trkpt lat="43.60187" lon="6.56729">
        <ele>436.6</ele>
        <time>2012-03-21T13:28:15Z</time>
      </trkpt>
      <trkpt lat="43.60189" lon="6.5674">
        <ele>436.8</ele>
        <time>2012-03-21T13:28:23Z</time>
      </trkpt>
      <trkpt lat="43.60189" lon="6.56751">
        <ele>437.5</ele>
        <time>2012-03-21T13:28:30Z</time>
      </trkpt>
      <trkpt lat="43.60191" lon="6.56762">
        <ele>438.6</ele>
        <time>2012-03-21T13:28:37Z</time>
      </trkpt>
      <trkpt lat="43.60191" lon="6.56774">
        <ele>439.2</ele>
        <time>2012-03-21T13:28:44Z</time>
      </trkpt>
      <trkpt lat="43.60189" lon="6.56785">
        <ele>440.1</ele>
        <time>2012-03-21T13:28:52Z</time>
      </trkpt>
      <trkpt lat="43.60188" lon="6.56797">
        <ele>440</ele>
        <time>2012-03-21T13:29:00Z</time>
      </trkpt>
      <trkpt lat="43.60188" lon="6.56799">
        <ele>439.8</ele>
        <time>2012-03-21T13:29:01Z</time>
      </trkpt>
      <trkpt lat="43.60185" lon="6.56819">
        <ele>441.9</ele>
        <time>2012-03-21T13:29:13Z</time>
      </trkpt>
      <trkpt lat="43.60185" lon="6.5683">
        <ele>442.1</ele>
        <time>2012-03-21T13:29:20Z</time>
      </trkpt>
      <trkpt lat="43.60185" lon="6.56842">
        <ele>442.9</ele>
        <time>2012-03-21T13:29:27Z</time>
      </trkpt>
      <trkpt lat="43.60185" lon="6.56853">
        <ele>442.6</ele>
        <time>2012-03-21T13:29:34Z</time>
      </trkpt>
      <trkpt lat="43.60186" lon="6.56865">
        <ele>442.7</ele>
        <time>2012-03-21T13:29:41Z</time>
      </trkpt>
      <trkpt lat="43.60186" lon="6.56876">
        <ele>443.4</ele>
        <time>2012-03-21T13:29:48Z</time>
      </trkpt>
      <trkpt lat="43.60186" lon="6.56888">
        <ele>443.8</ele>
        <time>2012-03-21T13:29:56Z</time>
      </trkpt>
      <trkpt lat="43.60186" lon="6.56899">
        <ele>445.5</ele>
        <time>2012-03-21T13:30:03Z</time>
      </trkpt>
      <trkpt lat="43.60186" lon="6.569">
        <ele>445.6</ele>
        <time>2012-03-21T13:30:04Z</time>
      </trkpt>
      <trkpt lat="43.60191" lon="6.5692">
        <ele>447.4</ele>
        <time>2012-03-21T13:30:18Z</time>
      </trkpt>
      <trkpt lat="43.60199" lon="6.56923">
        <ele>448.1</ele>
        <time>2012-03-21T13:30:25Z</time>
      </trkpt>
      <trkpt lat="43.60207" lon="6.5692">
        <ele>449</ele>
        <time>2012-03-21T13:30:32Z</time>
      </trkpt>
      <trkpt lat="43.60215" lon="6.56916">
        <ele>449.2</ele>
        <time>2012-03-21T13:30:39Z</time>
      </trkpt>
      <trkpt lat="43.60223" lon="6.56914">
        <ele>449</ele>
        <time>2012-03-21T13:30:46Z</time>
      </trkpt>
      <trkpt lat="43.60231" lon="6.56912">
        <ele>449.4</ele>
        <time>2012-03-21T13:30:53Z</time>
      </trkpt>
      <trkpt lat="43.60239" lon="6.5691">
        <ele>448</ele>
        <time>2012-03-21T13:31:00Z</time>
      </trkpt>
      <trkpt lat="43.60247" lon="6.56905">
        <ele>449.5</ele>
        <time>2012-03-21T13:31:06Z</time>
      </trkpt>
      <trkpt lat="43.60248" lon="6.56904">
        <ele>449.8</ele>
        <time>2012-03-21T13:31:07Z</time>
      </trkpt>
      <trkpt lat="43.60255" lon="6.56886">
        <ele>449.7</ele>
        <time>2012-03-21T13:31:19Z</time>
      </trkpt>
      <trkpt lat="43.60258" lon="6.56875">
        <ele>449.7</ele>
        <time>2012-03-21T13:31:25Z</time>
      </trkpt>
      <trkpt lat="43.60259" lon="6.56864">
        <ele>448.9</ele>
        <time>2012-03-21T13:31:32Z</time>
      </trkpt>
      <trkpt lat="43.60264" lon="6.56855">
        <ele>450.1</ele>
        <time>2012-03-21T13:31:37Z</time>
      </trkpt>
      <trkpt lat="43.60268" lon="6.56845">
        <ele>451.3</ele>
        <time>2012-03-21T13:31:43Z</time>
      </trkpt>
      <trkpt lat="43.60272" lon="6.56834">
        <ele>451.5</ele>
        <time>2012-03-21T13:31:51Z</time>
      </trkpt>
      <trkpt lat="43.60275" lon="6.56823">
        <ele>452.7</ele>
        <time>2012-03-21T13:31:58Z</time>
      </trkpt>
      <trkpt lat="43.60282" lon="6.56814">
        <ele>453.3</ele>
        <time>2012-03-21T13:32:05Z</time>
      </trkpt>
      <trkpt lat="43.60285" lon="6.56805">
        <ele>453.7</ele>
        <time>2012-03-21T13:32:10Z</time>
      </trkpt>
      <trkpt lat="43.60286" lon="6.56803">
        <ele>454</ele>
        <time>2012-03-21T13:32:11Z</time>
      </trkpt>
      <trkpt lat="43.60296" lon="6.56786">
        <ele>452.8</ele>
        <time>2012-03-21T13:32:22Z</time>
      </trkpt>
      <trkpt lat="43.60302" lon="6.56778">
        <ele>453.5</ele>
        <time>2012-03-21T13:32:28Z</time>
      </trkpt>
      <trkpt lat="43.60309" lon="6.56771">
        <ele>453.2</ele>
        <time>2012-03-21T13:32:34Z</time>
      </trkpt>
      <trkpt lat="43.60314" lon="6.56762">
        <ele>452.9</ele>
        <time>2012-03-21T13:32:40Z</time>
      </trkpt>
      <trkpt lat="43.60319" lon="6.56753">
        <ele>454.2</ele>
        <time>2012-03-21T13:32:46Z</time>
      </trkpt>
      <trkpt lat="43.60324" lon="6.56744">
        <ele>453.8</ele>
        <time>2012-03-21T13:32:53Z</time>
      </trkpt>
      <trkpt lat="43.60329" lon="6.56736">
        <ele>455.2</ele>
        <time>2012-03-21T13:33:00Z</time>
      </trkpt>
      <trkpt lat="43.60335" lon="6.56729">
        <ele>455.4</ele>
        <time>2012-03-21T13:33:05Z</time>
      </trkpt>
      <trkpt lat="43.60342" lon="6.56724">
        <ele>455.4</ele>
        <time>2012-03-21T13:33:11Z</time>
      </trkpt>
      <trkpt lat="43.60343" lon="6.56723">
        <ele>455.2</ele>
        <time>2012-03-21T13:33:12Z</time>
      </trkpt>
      <trkpt lat="43.60358" lon="6.56718">
        <ele>457.5</ele>
        <time>2012-03-21T13:33:25Z</time>
      </trkpt>
      <trkpt lat="43.60366" lon="6.5672">
        <ele>458.8</ele>
        <time>2012-03-21T13:33:32Z</time>
      </trkpt>
      <trkpt lat="43.60375" lon="6.56723">
        <ele>458.8</ele>
        <time>2012-03-21T13:33:40Z</time>
      </trkpt>
      <trkpt lat="43.60383" lon="6.56725">
        <ele>457.6</ele>
        <time>2012-03-21T13:33:46Z</time>
      </trkpt>
      <trkpt lat="43.60392" lon="6.56726">
        <ele>458.2</ele>
        <time>2012-03-21T13:33:53Z</time>
      </trkpt>
      <trkpt lat="43.604" lon="6.56726">
        <ele>458.8</ele>
        <time>2012-03-21T13:33:59Z</time>
      </trkpt>
      <trkpt lat="43.60408" lon="6.56722">
        <ele>458.5</ele>
        <time>2012-03-21T13:34:07Z</time>
      </trkpt>
      <trkpt lat="43.60415" lon="6.56717">
        <ele>459.5</ele>
        <time>2012-03-21T13:34:13Z</time>
      </trkpt>
      <trkpt lat="43.60417" lon="6.56716">
        <ele>459.7</ele>
        <time>2012-03-21T13:34:14Z</time>
      </trkpt>
      <trkpt lat="43.60429" lon="6.56705">
        <ele>459.7</ele>
        <time>2012-03-21T13:34:25Z</time>
      </trkpt>
      <trkpt lat="43.60436" lon="6.56697">
        <ele>461</ele>
        <time>2012-03-21T13:34:32Z</time>
      </trkpt>
      <trkpt lat="43.60442" lon="6.5669">
        <ele>461.8</ele>
        <time>2012-03-21T13:34:40Z</time>
      </trkpt>
      <trkpt lat="43.6045" lon="6.56685">
        <ele>462.5</ele>
        <time>2012-03-21T13:34:47Z</time>
      </trkpt>
      <trkpt lat="43.60457" lon="6.5668">
        <ele>463.8</ele>
        <time>2012-03-21T13:34:54Z</time>
      </trkpt>
      <trkpt lat="43.60464" lon="6.56674">
        <ele>464.2</ele>
        <time>2012-03-21T13:35:01Z</time>
      </trkpt>
      <trkpt lat="43.60471" lon="6.56667">
        <ele>465.4</ele>
        <time>2012-03-21T13:35:09Z</time>
      </trkpt>
      <trkpt lat="43.60476" lon="6.5666">
        <ele>465</ele>
        <time>2012-03-21T13:35:16Z</time>
      </trkpt>
      <trkpt lat="43.60478" lon="6.56659">
        <ele>465.3</ele>
        <time>2012-03-21T13:35:17Z</time>
      </trkpt>
      <trkpt lat="43.60489" lon="6.56643">
        <ele>466.2</ele>
        <time>2012-03-21T13:35:31Z</time>
      </trkpt>
      <trkpt lat="43.60495" lon="6.56634">
        <ele>467.8</ele>
        <time>2012-03-21T13:35:39Z</time>
      </trkpt>
      <trkpt lat="43.60502" lon="6.5663">
        <ele>468.1</ele>
        <time>2012-03-21T13:35:47Z</time>
      </trkpt>
      <trkpt lat="43.6051" lon="6.56634">
        <ele>471.4</ele>
        <time>2012-03-21T13:36:03Z</time>
      </trkpt>
      <trkpt lat="43.60513" lon="6.56646">
        <ele>472.8</ele>
        <time>2012-03-21T13:36:12Z</time>
      </trkpt>
      <trkpt lat="43.60514" lon="6.56657">
        <ele>473.6</ele>
        <time>2012-03-21T13:36:19Z</time>
      </trkpt>
      <trkpt lat="43.60514" lon="6.56659">
        <ele>473.8</ele>
        <time>2012-03-21T13:36:20Z</time>
      </trkpt>
      <trkpt lat="43.60511" lon="6.56681">
        <ele>474</ele>
        <time>2012-03-21T13:36:34Z</time>
      </trkpt>
      <trkpt lat="43.60506" lon="6.56691">
        <ele>473.3</ele>
        <time>2012-03-21T13:36:41Z</time>
      </trkpt>
      <trkpt lat="43.60501" lon="6.567">
        <ele>473.5</ele>
        <time>2012-03-21T13:36:49Z</time>
      </trkpt>
      <trkpt lat="43.60496" lon="6.5671">
        <ele>474.4</ele>
        <time>2012-03-21T13:36:57Z</time>
      </trkpt>
      <trkpt lat="43.60491" lon="6.56719">
        <ele>474.3</ele>
        <time>2012-03-21T13:37:05Z</time>
      </trkpt>
      <trkpt lat="43.60486" lon="6.56728">
        <ele>474.1</ele>
        <time>2012-03-21T13:37:11Z</time>
      </trkpt>
      <trkpt lat="43.6048" lon="6.56737">
        <ele>474.9</ele>
        <time>2012-03-21T13:37:19Z</time>
      </trkpt>
      <trkpt lat="43.60474" lon="6.56745">
        <ele>475.8</ele>
        <time>2012-03-21T13:37:26Z</time>
      </trkpt>
      <trkpt lat="43.60473" lon="6.56746">
        <ele>475.8</ele>
        <time>2012-03-21T13:37:27Z</time>
      </trkpt>
      <trkpt lat="43.60463" lon="6.56761">
        <ele>476.2</ele>
        <time>2012-03-21T13:37:41Z</time>
      </trkpt>
      <trkpt lat="43.60456" lon="6.56769">
        <ele>477.4</ele>
        <time>2012-03-21T13:37:48Z</time>
      </trkpt>
      <trkpt lat="43.60451" lon="6.5678">
        <ele>476.8</ele>
        <time>2012-03-21T13:37:55Z</time>
      </trkpt>
      <trkpt lat="43.60445" lon="6.56788">
        <ele>476.9</ele>
        <time>2012-03-21T13:38:02Z</time>
      </trkpt>
      <trkpt lat="43.60439" lon="6.56797">
        <ele>478.1</ele>
        <time>2012-03-21T13:38:10Z</time>
      </trkpt>
      <trkpt lat="43.60432" lon="6.56803">
        <ele>477.7</ele>
        <time>2012-03-21T13:38:17Z</time>
      </trkpt>
      <trkpt lat="43.60425" lon="6.56809">
        <ele>478.2</ele>
        <time>2012-03-21T13:38:23Z</time>
      </trkpt>
      <trkpt lat="43.6042" lon="6.56817">
        <ele>478</ele>
        <time>2012-03-21T13:38:29Z</time>
      </trkpt>
      <trkpt lat="43.60419" lon="6.56819">
        <ele>478.1</ele>
        <time>2012-03-21T13:38:30Z</time>
      </trkpt>
      <trkpt lat="43.60407" lon="6.56833">
        <ele>479.8</ele>
        <time>2012-03-21T13:38:42Z</time>
      </trkpt>
      <trkpt lat="43.604" lon="6.56838">
        <ele>480.2</ele>
        <time>2012-03-21T13:38:49Z</time>
      </trkpt>
      <trkpt lat="43.60394" lon="6.56846">
        <ele>479.8</ele>
        <time>2012-03-21T13:38:56Z</time>
      </trkpt>
      <trkpt lat="43.60387" lon="6.56854">
        <ele>481.5</ele>
        <time>2012-03-21T13:39:03Z</time>
      </trkpt>
      <trkpt lat="43.60384" lon="6.56864">
        <ele>481.2</ele>
        <time>2012-03-21T13:39:10Z</time>
      </trkpt>
      <trkpt lat="43.6038" lon="6.56875">
        <ele>481</ele>
        <time>2012-03-21T13:39:17Z</time>
      </trkpt>
      <trkpt lat="43.60376" lon="6.56885">
        <ele>482.3</ele>
        <time>2012-03-21T13:39:24Z</time>
      </trkpt>
      <trkpt lat="43.60373" lon="6.56895">
        <ele>482.3</ele>
        <time>2012-03-21T13:39:31Z</time>
      </trkpt>
      <trkpt lat="43.60373" lon="6.56897">
        <ele>482.3</ele>
        <time>2012-03-21T13:39:32Z</time>
      </trkpt>
      <trkpt lat="43.60363" lon="6.56914">
        <ele>484</ele>
        <time>2012-03-21T13:39:44Z</time>
      </trkpt>
      <trkpt lat="43.60361" lon="6.56925">
        <ele>484.9</ele>
        <time>2012-03-21T13:39:52Z</time>
      </trkpt>
      <trkpt lat="43.60361" lon="6.56936">
        <ele>486.2</ele>
        <time>2012-03-21T13:40:01Z</time>
      </trkpt>
      <trkpt lat="43.60363" lon="6.56948">
        <ele>487.1</ele>
        <time>2012-03-21T13:40:11Z</time>
      </trkpt>
      <trkpt lat="43.60365" lon="6.5696">
        <ele>488.1</ele>
        <time>2012-03-21T13:40:21Z</time>
      </trkpt>
      <trkpt lat="43.60365" lon="6.56971">
        <ele>489.6</ele>
        <time>2012-03-21T13:40:32Z</time>
      </trkpt>
      <trkpt lat="43.60365" lon="6.56973">
        <ele>489.3</ele>
        <time>2012-03-21T13:40:33Z</time>
      </trkpt>
      <trkpt lat="43.60369" lon="6.56995">
        <ele>491.4</ele>
        <time>2012-03-21T13:40:48Z</time>
      </trkpt>
      <trkpt lat="43.60371" lon="6.57007">
        <ele>493</ele>
        <time>2012-03-21T13:40:56Z</time>
      </trkpt>
      <trkpt lat="43.60373" lon="6.57018">
        <ele>494.3</ele>
        <time>2012-03-21T13:41:05Z</time>
      </trkpt>
      <trkpt lat="43.60375" lon="6.57028">
        <ele>495.2</ele>
        <time>2012-03-21T13:41:16Z</time>
      </trkpt>
      <trkpt lat="43.60384" lon="6.57027">
        <ele>496.9</ele>
        <time>2012-03-21T13:41:29Z</time>
      </trkpt>
      <trkpt lat="43.60387" lon="6.57016">
        <ele>498.2</ele>
        <time>2012-03-21T13:41:39Z</time>
      </trkpt>
      <trkpt lat="43.60387" lon="6.57015">
        <ele>498.4</ele>
        <time>2012-03-21T13:41:40Z</time>
      </trkpt>
      <trkpt lat="43.60391" lon="6.56994">
        <ele>499.3</ele>
        <time>2012-03-21T13:41:57Z</time>
      </trkpt>
      <trkpt lat="43.60394" lon="6.56984">
        <ele>500.5</ele>
        <time>2012-03-21T13:42:05Z</time>
      </trkpt>
      <trkpt lat="43.604" lon="6.56975">
        <ele>501.1</ele>
        <time>2012-03-21T13:42:13Z</time>
      </trkpt>
      <trkpt lat="43.60405" lon="6.56966">
        <ele>501.2</ele>
        <time>2012-03-21T13:42:21Z</time>
      </trkpt>
      <trkpt lat="43.60412" lon="6.56959">
        <ele>501.7</ele>
        <time>2012-03-21T13:42:28Z</time>
      </trkpt>
      <trkpt lat="43.60419" lon="6.56952">
        <ele>502.4</ele>
        <time>2012-03-21T13:42:37Z</time>
      </trkpt>
      <trkpt lat="43.60427" lon="6.56945">
        <ele>504.4</ele>
        <time>2012-03-21T13:42:45Z</time>
      </trkpt>
      <trkpt lat="43.60428" lon="6.56945">
        <ele>504.4</ele>
        <time>2012-03-21T13:42:46Z</time>
      </trkpt>
      <trkpt lat="43.60441" lon="6.56935">
        <ele>506.1</ele>
        <time>2012-03-21T13:43:00Z</time>
      </trkpt>
      <trkpt lat="43.60448" lon="6.5693">
        <ele>506.5</ele>
        <time>2012-03-21T13:43:08Z</time>
      </trkpt>
      <trkpt lat="43.60456" lon="6.56926">
        <ele>507.4</ele>
        <time>2012-03-21T13:43:16Z</time>
      </trkpt>
      <trkpt lat="43.60465" lon="6.56924">
        <ele>508</ele>
        <time>2012-03-21T13:43:24Z</time>
      </trkpt>
      <trkpt lat="43.60473" lon="6.5692">
        <ele>510</ele>
        <time>2012-03-21T13:43:33Z</time>
      </trkpt>
      <trkpt lat="43.6048" lon="6.56914">
        <ele>511.5</ele>
        <time>2012-03-21T13:43:42Z</time>
      </trkpt>
      <trkpt lat="43.60488" lon="6.56908">
        <ele>512.5</ele>
        <time>2012-03-21T13:43:51Z</time>
      </trkpt>
      <trkpt lat="43.60489" lon="6.56907">
        <ele>512.4</ele>
        <time>2012-03-21T13:43:52Z</time>
      </trkpt>
      <trkpt lat="43.60503" lon="6.56898">
        <ele>514.6</ele>
        <time>2012-03-21T13:44:09Z</time>
      </trkpt>
      <trkpt lat="43.60503" lon="6.5691">
        <ele>516.1</ele>
        <time>2012-03-21T13:44:19Z</time>
      </trkpt>
      <trkpt lat="43.60497" lon="6.56917">
        <ele>516.6</ele>
        <time>2012-03-21T13:44:27Z</time>
      </trkpt>
      <trkpt lat="43.6049" lon="6.56923">
        <ele>515.6</ele>
        <time>2012-03-21T13:44:34Z</time>
      </trkpt>
      <trkpt lat="43.60484" lon="6.56931">
        <ele>515.9</ele>
        <time>2012-03-21T13:44:41Z</time>
      </trkpt>
      <trkpt lat="43.60478" lon="6.5694">
        <ele>516.6</ele>
        <time>2012-03-21T13:44:49Z</time>
      </trkpt>
      <trkpt lat="43.60473" lon="6.56949">
        <ele>516.4</ele>
        <time>2012-03-21T13:44:57Z</time>
      </trkpt>
      <trkpt lat="43.60472" lon="6.5695">
        <ele>516.1</ele>
        <time>2012-03-21T13:44:58Z</time>
      </trkpt>
      <trkpt lat="43.6046" lon="6.56962">
        <ele>517.7</ele>
        <time>2012-03-21T13:45:11Z</time>
      </trkpt>
      <trkpt lat="43.60463" lon="6.56973">
        <ele>519.2</ele>
        <time>2012-03-21T13:45:28Z</time>
      </trkpt>
      <trkpt lat="43.60471" lon="6.56976">
        <ele>520</ele>
        <time>2012-03-21T13:47:05Z</time>
      </trkpt>
      <trkpt lat="43.60472" lon="6.56975">
        <ele>520.7</ele>
        <time>2012-03-21T13:47:06Z</time>
      </trkpt>
      <trkpt lat="43.60487" lon="6.5697">
        <ele>525.2</ele>
        <time>2012-03-21T13:47:35Z</time>
      </trkpt>
      <trkpt lat="43.60495" lon="6.56974">
        <ele>528</ele>
        <time>2012-03-21T13:47:52Z</time>
      </trkpt>
      <trkpt lat="43.60502" lon="6.56979">
        <ele>529.4</ele>
        <time>2012-03-21T13:47:58Z</time>
      </trkpt>
      <trkpt lat="43.60511" lon="6.56981">
        <ele>529.8</ele>
        <time>2012-03-21T13:48:06Z</time>
      </trkpt>
      <trkpt lat="43.60512" lon="6.56981">
        <ele>529.8</ele>
        <time>2012-03-21T13:48:07Z</time>
      </trkpt>
      <trkpt lat="43.60529" lon="6.56982">
        <ele>533.4</ele>
        <time>2012-03-21T13:48:29Z</time>
      </trkpt>
      <trkpt lat="43.60537" lon="6.5698">
        <ele>536.3</ele>
        <time>2012-03-21T13:48:40Z</time>
      </trkpt>
      <trkpt lat="43.60545" lon="6.56976">
        <ele>535.9</ele>
        <time>2012-03-21T13:48:49Z</time>
      </trkpt>
      <trkpt lat="43.60553" lon="6.5697">
        <ele>537.8</ele>
        <time>2012-03-21T13:49:01Z</time>
      </trkpt>
      <trkpt lat="43.60559" lon="6.56962">
        <ele>539.1</ele>
        <time>2012-03-21T13:49:12Z</time>
      </trkpt>
      <trkpt lat="43.6056" lon="6.56962">
        <ele>539.2</ele>
        <time>2012-03-21T13:49:13Z</time>
      </trkpt>
      <trkpt lat="43.60574" lon="6.5695">
        <ele>541.3</ele>
        <time>2012-03-21T13:49:33Z</time>
      </trkpt>
      <trkpt lat="43.60581" lon="6.56944">
        <ele>542.3</ele>
        <time>2012-03-21T13:49:44Z</time>
      </trkpt>
      <trkpt lat="43.60587" lon="6.56936">
        <ele>543.6</ele>
        <time>2012-03-21T13:49:54Z</time>
      </trkpt>
      <trkpt lat="43.60594" lon="6.5693">
        <ele>544.1</ele>
        <time>2012-03-21T13:50:02Z</time>
      </trkpt>
      <trkpt lat="43.60602" lon="6.56925">
        <ele>545.4</ele>
        <time>2012-03-21T13:50:11Z</time>
      </trkpt>
      <trkpt lat="43.60608" lon="6.56917">
        <ele>547</ele>
        <time>2012-03-21T13:50:22Z</time>
      </trkpt>
      <trkpt lat="43.60609" lon="6.56917">
        <ele>547.2</ele>
        <time>2012-03-21T13:50:23Z</time>
      </trkpt>
      <trkpt lat="43.60624" lon="6.56906">
        <ele>552.1</ele>
        <time>2012-03-21T13:50:47Z</time>
      </trkpt>
      <trkpt lat="43.60631" lon="6.56901">
        <ele>554.5</ele>
        <time>2012-03-21T13:51:00Z</time>
      </trkpt>
      <trkpt lat="43.60639" lon="6.56896">
        <ele>556.1</ele>
        <time>2012-03-21T13:51:12Z</time>
      </trkpt>
      <trkpt lat="43.60647" lon="6.56892">
        <ele>558.9</ele>
        <time>2012-03-21T13:51:27Z</time>
      </trkpt>
      <trkpt lat="43.60648" lon="6.56892">
        <ele>559.2</ele>
        <time>2012-03-21T13:51:28Z</time>
      </trkpt>
      <trkpt lat="43.60662" lon="6.56882">
        <ele>563.1</ele>
        <time>2012-03-21T13:51:52Z</time>
      </trkpt>
      <trkpt lat="43.60669" lon="6.56874">
        <ele>565</ele>
        <time>2012-03-21T13:52:05Z</time>
      </trkpt>
      <trkpt lat="43.60676" lon="6.56868">
        <ele>567.3</ele>
        <time>2012-03-21T13:52:16Z</time>
      </trkpt>
      <trkpt lat="43.60681" lon="6.56859">
        <ele>569.2</ele>
        <time>2012-03-21T13:52:27Z</time>
      </trkpt>
      <trkpt lat="43.60685" lon="6.56849">
        <ele>570.3</ele>
        <time>2012-03-21T13:52:38Z</time>
      </trkpt>
      <trkpt lat="43.60686" lon="6.56848">
        <ele>570.4</ele>
        <time>2012-03-21T13:52:39Z</time>
      </trkpt>
      <trkpt lat="43.607" lon="6.56835">
        <ele>573.2</ele>
        <time>2012-03-21T13:53:02Z</time>
      </trkpt>
      <trkpt lat="43.60707" lon="6.56829">
        <ele>574.4</ele>
        <time>2012-03-21T13:53:14Z</time>
      </trkpt>
      <trkpt lat="43.60712" lon="6.5682">
        <ele>577</ele>
        <time>2012-03-21T13:53:29Z</time>
      </trkpt>
      <trkpt lat="43.6072" lon="6.56814">
        <ele>579</ele>
        <time>2012-03-21T13:53:44Z</time>
      </trkpt>
      <trkpt lat="43.6072" lon="6.56813">
        <ele>579.4</ele>
        <time>2012-03-21T13:53:45Z</time>
      </trkpt>
      <trkpt lat="43.60734" lon="6.56799">
        <ele>581.5</ele>
        <time>2012-03-21T13:54:07Z</time>
      </trkpt>
      <trkpt lat="43.60743" lon="6.56799">
        <ele>582</ele>
        <time>2012-03-21T13:54:17Z</time>
      </trkpt>
      <trkpt lat="43.60751" lon="6.56794">
        <ele>584.4</ele>
        <time>2012-03-21T13:54:30Z</time>
      </trkpt>
      <trkpt lat="43.60759" lon="6.5679">
        <ele>585</ele>
        <time>2012-03-21T13:54:43Z</time>
      </trkpt>
      <trkpt lat="43.60768" lon="6.56788">
        <ele>586.3</ele>
        <time>2012-03-21T13:54:54Z</time>
      </trkpt>
      <trkpt lat="43.60769" lon="6.56787">
        <ele>586.4</ele>
        <time>2012-03-21T13:54:55Z</time>
      </trkpt>
      <trkpt lat="43.60785" lon="6.56784">
        <ele>589.4</ele>
        <time>2012-03-21T13:55:18Z</time>
      </trkpt>
      <trkpt lat="43.60794" lon="6.56784">
        <ele>590.9</ele>
        <time>2012-03-21T13:55:30Z</time>
      </trkpt>
      <trkpt lat="43.60802" lon="6.56784">
        <ele>592.9</ele>
        <time>2012-03-21T13:55:40Z</time>
      </trkpt>
      <trkpt lat="43.60811" lon="6.56782">
        <ele>593.4</ele>
        <time>2012-03-21T13:55:52Z</time>
      </trkpt>
      <trkpt lat="43.60819" lon="6.56781">
        <ele>597.3</ele>
        <time>2012-03-21T13:56:05Z</time>
      </trkpt>
      <trkpt lat="43.6082" lon="6.5678">
        <ele>597.3</ele>
        <time>2012-03-21T13:56:06Z</time>
      </trkpt>
      <trkpt lat="43.60836" lon="6.56776">
        <ele>600</ele>
        <time>2012-03-21T13:56:33Z</time>
      </trkpt>
      <trkpt lat="43.60845" lon="6.56773">
        <ele>601.5</ele>
        <time>2012-03-21T13:56:45Z</time>
      </trkpt>
      <trkpt lat="43.60852" lon="6.56775">
        <ele>602.6</ele>
        <time>2012-03-21T13:56:55Z</time>
      </trkpt>
      <trkpt lat="43.60855" lon="6.56787">
        <ele>603.7</ele>
        <time>2012-03-21T13:57:07Z</time>
      </trkpt>
      <trkpt lat="43.60855" lon="6.56788">
        <ele>603.9</ele>
        <time>2012-03-21T13:57:08Z</time>
      </trkpt>
      <trkpt lat="43.60857" lon="6.56811">
        <ele>606.8</ele>
        <time>2012-03-21T13:57:38Z</time>
      </trkpt>
      <trkpt lat="43.60862" lon="6.56821">
        <ele>611.1</ele>
        <time>2012-03-21T13:58:07Z</time>
      </trkpt>
      <trkpt lat="43.60869" lon="6.56815">
        <ele>613.1</ele>
        <time>2012-03-21T13:58:18Z</time>
      </trkpt>
      <trkpt lat="43.6087" lon="6.56815">
        <ele>613.2</ele>
        <time>2012-03-21T13:58:19Z</time>
      </trkpt>
      <trkpt lat="43.60885" lon="6.56808">
        <ele>615.5</ele>
        <time>2012-03-21T13:58:44Z</time>
      </trkpt>
      <trkpt lat="43.60893" lon="6.56801">
        <ele>617.1</ele>
        <time>2012-03-21T13:58:58Z</time>
      </trkpt>
      <trkpt lat="43.609" lon="6.56794">
        <ele>619.5</ele>
        <time>2012-03-21T13:59:11Z</time>
      </trkpt>
      <trkpt lat="43.60907" lon="6.56787">
        <ele>620.4</ele>
        <time>2012-03-21T13:59:23Z</time>
      </trkpt>
      <trkpt lat="43.60907" lon="6.56786">
        <ele>620.4</ele>
        <time>2012-03-21T13:59:24Z</time>
      </trkpt>
      <trkpt lat="43.60919" lon="6.56788">
        <ele>622.6</ele>
        <time>2012-03-21T13:59:51Z</time>
      </trkpt>
      <trkpt lat="43.60919" lon="6.568">
        <ele>625.4</ele>
        <time>2012-03-21T14:00:06Z</time>
      </trkpt>
      <trkpt lat="43.60919" lon="6.56811">
        <ele>627.1</ele>
        <time>2012-03-21T14:00:24Z</time>
      </trkpt>
      <trkpt lat="43.6092" lon="6.56812">
        <ele>627.2</ele>
        <time>2012-03-21T14:00:25Z</time>
      </trkpt>
      <trkpt lat="43.60917" lon="6.56834">
        <ele>633.6</ele>
        <time>2012-03-21T14:01:04Z</time>
      </trkpt>
      <trkpt lat="43.60914" lon="6.56845">
        <ele>635</ele>
        <time>2012-03-21T14:01:16Z</time>
      </trkpt>
      <trkpt lat="43.60922" lon="6.56851">
        <ele>636</ele>
        <time>2012-03-21T14:01:33Z</time>
      </trkpt>
      <trkpt lat="43.60922" lon="6.56851">
        <ele>636.1</ele>
        <time>2012-03-21T14:01:34Z</time>
      </trkpt>
      <trkpt lat="43.60933" lon="6.56834">
        <ele>635.4</ele>
        <time>2012-03-21T14:01:56Z</time>
      </trkpt>
      <trkpt lat="43.6094" lon="6.56826">
        <ele>636.7</ele>
        <time>2012-03-21T14:02:06Z</time>
      </trkpt>
      <trkpt lat="43.60942" lon="6.56814">
        <ele>637.7</ele>
        <time>2012-03-21T14:02:41Z</time>
      </trkpt>
      <trkpt lat="43.60943" lon="6.56813">
        <ele>637.9</ele>
        <time>2012-03-21T14:02:42Z</time>
      </trkpt>
      <trkpt lat="43.60948" lon="6.56803">
        <ele>635.2</ele>
        <time>2012-03-21T14:07:38Z</time>
      </trkpt>
      <trkpt lat="43.60948" lon="6.56803">
        <ele>635.4</ele>
        <time>2012-03-21T14:07:39Z</time>
      </trkpt>
      <trkpt lat="43.60945" lon="6.56805">
        <ele>637.9</ele>
        <time>2012-03-21T14:08:50Z</time>
      </trkpt>
      <trkpt lat="43.60946" lon="6.56806">
        <ele>637.8</ele>
        <time>2012-03-21T14:08:51Z</time>
      </trkpt>
      <trkpt lat="43.60956" lon="6.56823">
        <ele>638.4</ele>
        <time>2012-03-21T14:09:35Z</time>
      </trkpt>
      <trkpt lat="43.60964" lon="6.5682">
        <ele>637.3</ele>
        <time>2012-03-21T14:09:47Z</time>
      </trkpt>
      <trkpt lat="43.60971" lon="6.56816">
        <ele>637.4</ele>
        <time>2012-03-21T14:09:55Z</time>
      </trkpt>
      <trkpt lat="43.60972" lon="6.56815">
        <ele>637.4</ele>
        <time>2012-03-21T14:09:56Z</time>
      </trkpt>
      <trkpt lat="43.60987" lon="6.56811">
        <ele>638</ele>
        <time>2012-03-21T14:13:27Z</time>
      </trkpt>
      <trkpt lat="43.60987" lon="6.56812">
        <ele>637.9</ele>
        <time>2012-03-21T14:13:28Z</time>
      </trkpt>
      <trkpt lat="43.60971" lon="6.5682">
        <ele>638.3</ele>
        <time>2012-03-21T14:14:14Z</time>
      </trkpt>
      <trkpt lat="43.60965" lon="6.56829">
        <ele>639.1</ele>
        <time>2012-03-21T14:14:25Z</time>
      </trkpt>
      <trkpt lat="43.6096" lon="6.56838">
        <ele>639.5</ele>
        <time>2012-03-21T14:14:32Z</time>
      </trkpt>
      <trkpt lat="43.60959" lon="6.5684">
        <ele>639.6</ele>
        <time>2012-03-21T14:14:33Z</time>
      </trkpt>
      <trkpt lat="43.60953" lon="6.56859">
        <ele>639.3</ele>
        <time>2012-03-21T14:14:48Z</time>
      </trkpt>
      <trkpt lat="43.60949" lon="6.5687">
        <ele>638.7</ele>
        <time>2012-03-21T14:14:58Z</time>
      </trkpt>
      <trkpt lat="43.60943" lon="6.56877">
        <ele>638.7</ele>
        <time>2012-03-21T14:15:05Z</time>
      </trkpt>
      <trkpt lat="43.60937" lon="6.56882">
        <ele>638.5</ele>
        <time>2012-03-21T14:15:12Z</time>
      </trkpt>
      <trkpt lat="43.60931" lon="6.5689">
        <ele>638.7</ele>
        <time>2012-03-21T14:15:21Z</time>
      </trkpt>
      <trkpt lat="43.60926" lon="6.56899">
        <ele>637.4</ele>
        <time>2012-03-21T14:15:29Z</time>
      </trkpt>
      <trkpt lat="43.60923" lon="6.5691">
        <ele>635.9</ele>
        <time>2012-03-21T14:15:37Z</time>
      </trkpt>
      <trkpt lat="43.60923" lon="6.56912">
        <ele>636</ele>
        <time>2012-03-21T14:15:38Z</time>
      </trkpt>
      <trkpt lat="43.60916" lon="6.56931">
        <ele>634.2</ele>
        <time>2012-03-21T14:15:53Z</time>
      </trkpt>
      <trkpt lat="43.60908" lon="6.56938">
        <ele>632.8</ele>
        <time>2012-03-21T14:16:01Z</time>
      </trkpt>
      <trkpt lat="43.60901" lon="6.56942">
        <ele>633.6</ele>
        <time>2012-03-21T14:16:07Z</time>
      </trkpt>
      <trkpt lat="43.60894" lon="6.56946">
        <ele>633</ele>
        <time>2012-03-21T14:16:13Z</time>
      </trkpt>
      <trkpt lat="43.60886" lon="6.56949">
        <ele>633</ele>
        <time>2012-03-21T14:16:20Z</time>
      </trkpt>
      <trkpt lat="43.6088" lon="6.56958">
        <ele>633.5</ele>
        <time>2012-03-21T14:16:30Z</time>
      </trkpt>
      <trkpt lat="43.60878" lon="6.5697">
        <ele>634.9</ele>
        <time>2012-03-21T14:16:40Z</time>
      </trkpt>
      <trkpt lat="43.60877" lon="6.56971">
        <ele>634.8</ele>
        <time>2012-03-21T14:16:41Z</time>
      </trkpt>
      <trkpt lat="43.60875" lon="6.56993">
        <ele>637</ele>
        <time>2012-03-21T14:16:55Z</time>
      </trkpt>
      <trkpt lat="43.60875" lon="6.57005">
        <ele>637.4</ele>
        <time>2012-03-21T14:17:06Z</time>
      </trkpt>
      <trkpt lat="43.60875" lon="6.57017">
        <ele>638.8</ele>
        <time>2012-03-21T14:17:16Z</time>
      </trkpt>
      <trkpt lat="43.60875" lon="6.5703">
        <ele>640</ele>
        <time>2012-03-21T14:17:25Z</time>
      </trkpt>
      <trkpt lat="43.60872" lon="6.57041">
        <ele>640.4</ele>
        <time>2012-03-21T14:17:34Z</time>
      </trkpt>
      <trkpt lat="43.60869" lon="6.57052">
        <ele>642.1</ele>
        <time>2012-03-21T14:17:41Z</time>
      </trkpt>
      <trkpt lat="43.6087" lon="6.57053">
        <ele>642.6</ele>
        <time>2012-03-21T14:17:42Z</time>
      </trkpt>
      <trkpt lat="43.60868" lon="6.57076">
        <ele>644.2</ele>
        <time>2012-03-21T14:17:59Z</time>
      </trkpt>
      <trkpt lat="43.60867" lon="6.57087">
        <ele>644.9</ele>
        <time>2012-03-21T14:18:07Z</time>
      </trkpt>
      <trkpt lat="43.60869" lon="6.57098">
        <ele>645.6</ele>
        <time>2012-03-21T14:18:16Z</time>
      </trkpt>
      <trkpt lat="43.60874" lon="6.57108">
        <ele>645.9</ele>
        <time>2012-03-21T14:18:26Z</time>
      </trkpt>
      <trkpt lat="43.60879" lon="6.57117">
        <ele>646.6</ele>
        <time>2012-03-21T14:18:36Z</time>
      </trkpt>
      <trkpt lat="43.60885" lon="6.57125">
        <ele>647.5</ele>
        <time>2012-03-21T14:18:43Z</time>
      </trkpt>
      <trkpt lat="43.60885" lon="6.57127">
        <ele>647.5</ele>
        <time>2012-03-21T14:18:44Z</time>
      </trkpt>
      <trkpt lat="43.609" lon="6.57137">
        <ele>647.9</ele>
        <time>2012-03-21T14:19:01Z</time>
      </trkpt>
      <trkpt lat="43.60908" lon="6.57141">
        <ele>648.1</ele>
        <time>2012-03-21T14:19:09Z</time>
      </trkpt>
      <trkpt lat="43.60916" lon="6.57146">
        <ele>649.5</ele>
        <time>2012-03-21T14:19:18Z</time>
      </trkpt>
      <trkpt lat="43.60923" lon="6.57152">
        <ele>650.4</ele>
        <time>2012-03-21T14:19:26Z</time>
      </trkpt>
      <trkpt lat="43.60929" lon="6.57161">
        <ele>650.5</ele>
        <time>2012-03-21T14:19:35Z</time>
      </trkpt>
      <trkpt lat="43.60933" lon="6.57171">
        <ele>652.1</ele>
        <time>2012-03-21T14:19:43Z</time>
      </trkpt>
      <trkpt lat="43.60936" lon="6.57181">
        <ele>651.6</ele>
        <time>2012-03-21T14:19:49Z</time>
      </trkpt>
      <trkpt lat="43.60937" lon="6.57183">
        <ele>652</ele>
        <time>2012-03-21T14:19:50Z</time>
      </trkpt>
      <trkpt lat="43.60939" lon="6.57204">
        <ele>653</ele>
        <time>2012-03-21T14:20:05Z</time>
      </trkpt>
      <trkpt lat="43.60936" lon="6.57215">
        <ele>654.3</ele>
        <time>2012-03-21T14:20:13Z</time>
      </trkpt>
      <trkpt lat="43.60933" lon="6.57226">
        <ele>654</ele>
        <time>2012-03-21T14:20:22Z</time>
      </trkpt>
      <trkpt lat="43.60931" lon="6.57237">
        <ele>656.4</ele>
        <time>2012-03-21T14:20:30Z</time>
      </trkpt>
      <trkpt lat="43.6093" lon="6.57249">
        <ele>656.5</ele>
        <time>2012-03-21T14:20:39Z</time>
      </trkpt>
      <trkpt lat="43.60928" lon="6.5726">
        <ele>657.2</ele>
        <time>2012-03-21T14:20:47Z</time>
      </trkpt>
      <trkpt lat="43.60925" lon="6.57271">
        <ele>658.6</ele>
        <time>2012-03-21T14:20:54Z</time>
      </trkpt>
      <trkpt lat="43.60925" lon="6.57273">
        <ele>658.2</ele>
        <time>2012-03-21T14:20:55Z</time>
      </trkpt>
      <trkpt lat="43.6092" lon="6.57293">
        <ele>658.8</ele>
        <time>2012-03-21T14:21:09Z</time>
      </trkpt>
      <trkpt lat="43.60917" lon="6.57304">
        <ele>658.8</ele>
        <time>2012-03-21T14:21:16Z</time>
      </trkpt>
      <trkpt lat="43.60915" lon="6.57314">
        <ele>659.7</ele>
        <time>2012-03-21T14:21:23Z</time>
      </trkpt>
      <trkpt lat="43.60912" lon="6.57325">
        <ele>659</ele>
        <time>2012-03-21T14:21:30Z</time>
      </trkpt>
      <trkpt lat="43.60911" lon="6.57337">
        <ele>658.5</ele>
        <time>2012-03-21T14:21:38Z</time>
      </trkpt>
      <trkpt lat="43.60909" lon="6.57348">
        <ele>658.9</ele>
        <time>2012-03-21T14:21:46Z</time>
      </trkpt>
      <trkpt lat="43.60907" lon="6.5736">
        <ele>659.6</ele>
        <time>2012-03-21T14:21:54Z</time>
      </trkpt>
      <trkpt lat="43.60907" lon="6.57371">
        <ele>660</ele>
        <time>2012-03-21T14:22:03Z</time>
      </trkpt>
      <trkpt lat="43.60907" lon="6.57373">
        <ele>660.3</ele>
        <time>2012-03-21T14:22:04Z</time>
      </trkpt>
      <trkpt lat="43.60903" lon="6.57395">
        <ele>661</ele>
        <time>2012-03-21T14:22:18Z</time>
      </trkpt>
      <trkpt lat="43.60902" lon="6.57406">
        <ele>661.2</ele>
        <time>2012-03-21T14:22:25Z</time>
      </trkpt>
      <trkpt lat="43.60903" lon="6.57418">
        <ele>660.7</ele>
        <time>2012-03-21T14:22:33Z</time>
      </trkpt>
      <trkpt lat="43.60903" lon="6.57429">
        <ele>661.4</ele>
        <time>2012-03-21T14:22:40Z</time>
      </trkpt>
      <trkpt lat="43.60905" lon="6.5744">
        <ele>661.3</ele>
        <time>2012-03-21T14:22:48Z</time>
      </trkpt>
      <trkpt lat="43.60908" lon="6.57451">
        <ele>661.7</ele>
        <time>2012-03-21T14:22:56Z</time>
      </trkpt>
      <trkpt lat="43.60909" lon="6.57462">
        <ele>662.5</ele>
        <time>2012-03-21T14:23:04Z</time>
      </trkpt>
      <trkpt lat="43.60909" lon="6.57464">
        <ele>662.2</ele>
        <time>2012-03-21T14:23:05Z</time>
      </trkpt>
      <trkpt lat="43.6091" lon="6.57486">
        <ele>663</ele>
        <time>2012-03-21T14:23:21Z</time>
      </trkpt>
      <trkpt lat="43.60908" lon="6.57498">
        <ele>663.5</ele>
        <time>2012-03-21T14:23:31Z</time>
      </trkpt>
      <trkpt lat="43.60906" lon="6.57508">
        <ele>664.1</ele>
        <time>2012-03-21T14:23:40Z</time>
      </trkpt>
      <trkpt lat="43.60902" lon="6.5752">
        <ele>664.9</ele>
        <time>2012-03-21T14:23:48Z</time>
      </trkpt>
      <trkpt lat="43.60898" lon="6.57529">
        <ele>665.5</ele>
        <time>2012-03-21T14:23:54Z</time>
      </trkpt>
      <trkpt lat="43.60895" lon="6.5754">
        <ele>665</ele>
        <time>2012-03-21T14:24:01Z</time>
      </trkpt>
      <trkpt lat="43.60893" lon="6.57551">
        <ele>664.6</ele>
        <time>2012-03-21T14:24:08Z</time>
      </trkpt>
      <trkpt lat="43.60893" lon="6.57552">
        <ele>664.3</ele>
        <time>2012-03-21T14:24:09Z</time>
      </trkpt>
      <trkpt lat="43.60889" lon="6.57574">
        <ele>666.1</ele>
        <time>2012-03-21T14:24:23Z</time>
      </trkpt>
      <trkpt lat="43.60887" lon="6.57585">
        <ele>665.7</ele>
        <time>2012-03-21T14:24:30Z</time>
      </trkpt>
      <trkpt lat="43.60888" lon="6.57596">
        <ele>666.7</ele>
        <time>2012-03-21T14:24:38Z</time>
      </trkpt>
      <trkpt lat="43.60887" lon="6.57608">
        <ele>666.4</ele>
        <time>2012-03-21T14:24:45Z</time>
      </trkpt>
      <trkpt lat="43.60885" lon="6.5762">
        <ele>666.2</ele>
        <time>2012-03-21T14:24:52Z</time>
      </trkpt>
      <trkpt lat="43.60886" lon="6.57632">
        <ele>665.3</ele>
        <time>2012-03-21T14:24:59Z</time>
      </trkpt>
      <trkpt lat="43.60886" lon="6.57644">
        <ele>666</ele>
        <time>2012-03-21T14:25:07Z</time>
      </trkpt>
      <trkpt lat="43.60887" lon="6.57655">
        <ele>667.2</ele>
        <time>2012-03-21T14:25:14Z</time>
      </trkpt>
      <trkpt lat="43.60887" lon="6.57657">
        <ele>667.2</ele>
        <time>2012-03-21T14:25:15Z</time>
      </trkpt>
      <trkpt lat="43.60885" lon="6.57678">
        <ele>667</ele>
        <time>2012-03-21T14:25:30Z</time>
      </trkpt>
      <trkpt lat="43.60881" lon="6.57688">
        <ele>666.7</ele>
        <time>2012-03-21T14:25:39Z</time>
      </trkpt>
      <trkpt lat="43.60876" lon="6.57696">
        <ele>667.3</ele>
        <time>2012-03-21T14:25:45Z</time>
      </trkpt>
      <trkpt lat="43.6087" lon="6.57705">
        <ele>666.6</ele>
        <time>2012-03-21T14:25:52Z</time>
      </trkpt>
      <trkpt lat="43.60865" lon="6.57713">
        <ele>668</ele>
        <time>2012-03-21T14:25:59Z</time>
      </trkpt>
      <trkpt lat="43.60859" lon="6.57722">
        <ele>667.6</ele>
        <time>2012-03-21T14:26:06Z</time>
      </trkpt>
      <trkpt lat="43.60853" lon="6.57731">
        <ele>668.2</ele>
        <time>2012-03-21T14:26:14Z</time>
      </trkpt>
      <trkpt lat="43.60848" lon="6.57739">
        <ele>669.1</ele>
        <time>2012-03-21T14:26:21Z</time>
      </trkpt>
      <trkpt lat="43.60847" lon="6.5774">
        <ele>668.7</ele>
        <time>2012-03-21T14:26:22Z</time>
      </trkpt>
      <trkpt lat="43.60838" lon="6.57757">
        <ele>670.9</ele>
        <time>2012-03-21T14:26:35Z</time>
      </trkpt>
      <trkpt lat="43.60834" lon="6.57766">
        <ele>671.3</ele>
        <time>2012-03-21T14:26:42Z</time>
      </trkpt>
      <trkpt lat="43.6083" lon="6.57777">
        <ele>671.8</ele>
        <time>2012-03-21T14:26:49Z</time>
      </trkpt>
      <trkpt lat="43.60826" lon="6.57787">
        <ele>672.5</ele>
        <time>2012-03-21T14:26:56Z</time>
      </trkpt>
      <trkpt lat="43.60823" lon="6.57798">
        <ele>673.3</ele>
        <time>2012-03-21T14:27:04Z</time>
      </trkpt>
      <trkpt lat="43.6082" lon="6.57809">
        <ele>673.5</ele>
        <time>2012-03-21T14:27:11Z</time>
      </trkpt>
      <trkpt lat="43.60819" lon="6.5782">
        <ele>673.4</ele>
        <time>2012-03-21T14:27:18Z</time>
      </trkpt>
      <trkpt lat="43.60817" lon="6.57831">
        <ele>673.5</ele>
        <time>2012-03-21T14:27:25Z</time>
      </trkpt>
      <trkpt lat="43.60817" lon="6.57832">
        <ele>673.8</ele>
        <time>2012-03-21T14:27:26Z</time>
      </trkpt>
      <trkpt lat="43.60814" lon="6.57854">
        <ele>673.7</ele>
        <time>2012-03-21T14:27:40Z</time>
      </trkpt>
      <trkpt lat="43.60812" lon="6.57865">
        <ele>674.2</ele>
        <time>2012-03-21T14:27:47Z</time>
      </trkpt>
      <trkpt lat="43.60812" lon="6.57876">
        <ele>673.5</ele>
        <time>2012-03-21T14:27:54Z</time>
      </trkpt>
      <trkpt lat="43.60812" lon="6.57888">
        <ele>674.7</ele>
        <time>2012-03-21T14:28:01Z</time>
      </trkpt>
      <trkpt lat="43.60813" lon="6.57899">
        <ele>674.8</ele>
        <time>2012-03-21T14:28:09Z</time>
      </trkpt>
      <trkpt lat="43.60816" lon="6.57911">
        <ele>676.1</ele>
        <time>2012-03-21T14:28:17Z</time>
      </trkpt>
      <trkpt lat="43.60819" lon="6.57921">
        <ele>677.3</ele>
        <time>2012-03-21T14:28:25Z</time>
      </trkpt>
      <trkpt lat="43.60823" lon="6.57931">
        <ele>677.1</ele>
        <time>2012-03-21T14:28:32Z</time>
      </trkpt>
      <trkpt lat="43.60824" lon="6.57932">
        <ele>677.3</ele>
        <time>2012-03-21T14:28:33Z</time>
      </trkpt>
      <trkpt lat="43.60831" lon="6.57951">
        <ele>678.1</ele>
        <time>2012-03-21T14:28:50Z</time>
      </trkpt>
      <trkpt lat="43.60836" lon="6.57961">
        <ele>678.6</ele>
        <time>2012-03-21T14:28:58Z</time>
      </trkpt>
      <trkpt lat="43.60841" lon="6.57971">
        <ele>679.1</ele>
        <time>2012-03-21T14:29:05Z</time>
      </trkpt>
      <trkpt lat="43.60845" lon="6.5798">
        <ele>678.6</ele>
        <time>2012-03-21T14:29:13Z</time>
      </trkpt>
      <trkpt lat="43.6085" lon="6.57989">
        <ele>678.5</ele>
        <time>2012-03-21T14:29:20Z</time>
      </trkpt>
      <trkpt lat="43.60855" lon="6.57999">
        <ele>680.1</ele>
        <time>2012-03-21T14:29:28Z</time>
      </trkpt>
      <trkpt lat="43.6086" lon="6.58008">
        <ele>679.5</ele>
        <time>2012-03-21T14:29:36Z</time>
      </trkpt>
      <trkpt lat="43.60861" lon="6.5801">
        <ele>680.2</ele>
        <time>2012-03-21T14:29:37Z</time>
      </trkpt>
      <trkpt lat="43.60867" lon="6.5803">
        <ele>680.6</ele>
        <time>2012-03-21T14:29:50Z</time>
      </trkpt>
      <trkpt lat="43.60871" lon="6.5804">
        <ele>680.2</ele>
        <time>2012-03-21T14:29:56Z</time>
      </trkpt>
      <trkpt lat="43.60872" lon="6.58053">
        <ele>681.2</ele>
        <time>2012-03-21T14:30:04Z</time>
      </trkpt>
      <trkpt lat="43.60873" lon="6.58065">
        <ele>680.7</ele>
        <time>2012-03-21T14:30:12Z</time>
      </trkpt>
      <trkpt lat="43.60874" lon="6.58076">
        <ele>680.6</ele>
        <time>2012-03-21T14:30:19Z</time>
      </trkpt>
      <trkpt lat="43.60875" lon="6.58088">
        <ele>680</ele>
        <time>2012-03-21T14:30:27Z</time>
      </trkpt>
      <trkpt lat="43.60875" lon="6.58099">
        <ele>681.3</ele>
        <time>2012-03-21T14:30:35Z</time>
      </trkpt>
      <trkpt lat="43.60872" lon="6.5811">
        <ele>681.8</ele>
        <time>2012-03-21T14:30:42Z</time>
      </trkpt>
      <trkpt lat="43.60872" lon="6.58112">
        <ele>681.9</ele>
        <time>2012-03-21T14:30:43Z</time>
      </trkpt>
      <trkpt lat="43.60874" lon="6.58134">
        <ele>683.6</ele>
        <time>2012-03-21T14:30:59Z</time>
      </trkpt>
      <trkpt lat="43.60872" lon="6.58146">
        <ele>682.9</ele>
        <time>2012-03-21T14:31:07Z</time>
      </trkpt>
      <trkpt lat="43.60869" lon="6.58157">
        <ele>683.1</ele>
        <time>2012-03-21T14:31:13Z</time>
      </trkpt>
      <trkpt lat="43.60866" lon="6.58168">
        <ele>682</ele>
        <time>2012-03-21T14:31:20Z</time>
      </trkpt>
      <trkpt lat="43.60866" lon="6.5818">
        <ele>682.5</ele>
        <time>2012-03-21T14:31:37Z</time>
      </trkpt>
      <trkpt lat="43.60862" lon="6.58191">
        <ele>682.2</ele>
        <time>2012-03-21T14:31:46Z</time>
      </trkpt>
      <trkpt lat="43.60862" lon="6.58192">
        <ele>682.1</ele>
        <time>2012-03-21T14:31:47Z</time>
      </trkpt>
      <trkpt lat="43.60854" lon="6.58211">
        <ele>682.3</ele>
        <time>2012-03-21T14:32:04Z</time>
      </trkpt>
      <trkpt lat="43.60848" lon="6.5822">
        <ele>682</ele>
        <time>2012-03-21T14:32:13Z</time>
      </trkpt>
      <trkpt lat="43.60841" lon="6.58228">
        <ele>682.5</ele>
        <time>2012-03-21T14:32:20Z</time>
      </trkpt>
      <trkpt lat="43.60835" lon="6.58237">
        <ele>682.2</ele>
        <time>2012-03-21T14:32:28Z</time>
      </trkpt>
      <trkpt lat="43.60828" lon="6.58245">
        <ele>682.7</ele>
        <time>2012-03-21T14:32:35Z</time>
      </trkpt>
      <trkpt lat="43.60822" lon="6.58251">
        <ele>681.4</ele>
        <time>2012-03-21T14:32:41Z</time>
      </trkpt>
      <trkpt lat="43.60815" lon="6.58259">
        <ele>681.3</ele>
        <time>2012-03-21T14:32:48Z</time>
      </trkpt>
      <trkpt lat="43.60814" lon="6.5826">
        <ele>681.5</ele>
        <time>2012-03-21T14:32:49Z</time>
      </trkpt>
      <trkpt lat="43.60802" lon="6.58274">
        <ele>678.8</ele>
        <time>2012-03-21T14:33:03Z</time>
      </trkpt>
      <trkpt lat="43.60797" lon="6.58283">
        <ele>678.3</ele>
        <time>2012-03-21T14:33:10Z</time>
      </trkpt>
      <trkpt lat="43.60794" lon="6.58294">
        <ele>679.4</ele>
        <time>2012-03-21T14:33:18Z</time>
      </trkpt>
      <trkpt lat="43.60789" lon="6.58303">
        <ele>679.4</ele>
        <time>2012-03-21T14:33:24Z</time>
      </trkpt>
      <trkpt lat="43.60785" lon="6.58313">
        <ele>679.8</ele>
        <time>2012-03-21T14:33:32Z</time>
      </trkpt>
      <trkpt lat="43.60779" lon="6.58321">
        <ele>681.5</ele>
        <time>2012-03-21T14:33:41Z</time>
      </trkpt>
      <trkpt lat="43.60777" lon="6.58332">
        <ele>682.4</ele>
        <time>2012-03-21T14:33:50Z</time>
      </trkpt>
      <trkpt lat="43.60776" lon="6.58333">
        <ele>682.5</ele>
        <time>2012-03-21T14:33:51Z</time>
      </trkpt>
      <trkpt lat="43.60765" lon="6.58348">
        <ele>683.7</ele>
        <time>2012-03-21T14:34:04Z</time>
      </trkpt>
      <trkpt lat="43.60759" lon="6.58357">
        <ele>684.8</ele>
        <time>2012-03-21T14:34:11Z</time>
      </trkpt>
      <trkpt lat="43.60754" lon="6.58365">
        <ele>686.2</ele>
        <time>2012-03-21T14:34:19Z</time>
      </trkpt>
      <trkpt lat="43.60748" lon="6.58373">
        <ele>687.5</ele>
        <time>2012-03-21T14:34:26Z</time>
      </trkpt>
      <trkpt lat="43.60742" lon="6.58382">
        <ele>687.6</ele>
        <time>2012-03-21T14:34:34Z</time>
      </trkpt>
      <trkpt lat="43.60736" lon="6.58391">
        <ele>688.2</ele>
        <time>2012-03-21T14:34:42Z</time>
      </trkpt>
      <trkpt lat="43.60733" lon="6.58402">
        <ele>690</ele>
        <time>2012-03-21T14:35:02Z</time>
      </trkpt>
      <trkpt lat="43.60733" lon="6.58403">
        <ele>689.8</ele>
        <time>2012-03-21T14:35:03Z</time>
      </trkpt>
      <trkpt lat="43.60748" lon="6.58416">
        <ele>695.7</ele>
        <time>2012-03-21T14:35:32Z</time>
      </trkpt>
      <trkpt lat="43.60756" lon="6.5842">
        <ele>696</ele>
        <time>2012-03-21T14:35:45Z</time>
      </trkpt>
      <trkpt lat="43.60763" lon="6.58427">
        <ele>697.8</ele>
        <time>2012-03-21T14:35:54Z</time>
      </trkpt>
      <trkpt lat="43.60769" lon="6.58435">
        <ele>700</ele>
        <time>2012-03-21T14:36:04Z</time>
      </trkpt>
      <trkpt lat="43.60769" lon="6.58436">
        <ele>700</ele>
        <time>2012-03-21T14:36:05Z</time>
      </trkpt>
      <trkpt lat="43.60778" lon="6.58455">
        <ele>703.4</ele>
        <time>2012-03-21T14:36:25Z</time>
      </trkpt>
      <trkpt lat="43.60785" lon="6.58458">
        <ele>704.9</ele>
        <time>2012-03-21T14:36:36Z</time>
      </trkpt>
      <trkpt lat="43.60794" lon="6.58458">
        <ele>705.7</ele>
        <time>2012-03-21T14:36:47Z</time>
      </trkpt>
      <trkpt lat="43.60802" lon="6.58462">
        <ele>706.9</ele>
        <time>2012-03-21T14:36:56Z</time>
      </trkpt>
      <trkpt lat="43.6081" lon="6.58462">
        <ele>707.8</ele>
        <time>2012-03-21T14:37:05Z</time>
      </trkpt>
      <trkpt lat="43.60811" lon="6.58462">
        <ele>707.9</ele>
        <time>2012-03-21T14:37:06Z</time>
      </trkpt>
      <trkpt lat="43.60827" lon="6.58461">
        <ele>709.8</ele>
        <time>2012-03-21T14:37:24Z</time>
      </trkpt>
      <trkpt lat="43.60833" lon="6.58467">
        <ele>710.9</ele>
        <time>2012-03-21T14:37:38Z</time>
      </trkpt>
      <trkpt lat="43.60837" lon="6.58479">
        <ele>711.4</ele>
        <time>2012-03-21T14:38:03Z</time>
      </trkpt>
      <trkpt lat="43.60844" lon="6.58487">
        <ele>711.2</ele>
        <time>2012-03-21T14:38:37Z</time>
      </trkpt>
      <trkpt lat="43.60844" lon="6.58487">
        <ele>711.1</ele>
        <time>2012-03-21T14:38:38Z</time>
      </trkpt>
      <trkpt lat="43.6085" lon="6.58508">
        <ele>711.3</ele>
        <time>2012-03-21T14:38:57Z</time>
      </trkpt>
      <trkpt lat="43.6085" lon="6.58521">
        <ele>711.1</ele>
        <time>2012-03-21T14:39:32Z</time>
      </trkpt>
      <trkpt lat="43.60849" lon="6.58508">
        <ele>710.8</ele>
        <time>2012-03-21T14:40:35Z</time>
      </trkpt>
      <trkpt lat="43.60849" lon="6.58508">
        <ele>710.7</ele>
        <time>2012-03-21T14:40:36Z</time>
      </trkpt>
      <trkpt lat="43.6084" lon="6.58489">
        <ele>710.7</ele>
        <time>2012-03-21T14:41:11Z</time>
      </trkpt>
      <trkpt lat="43.60837" lon="6.58477">
        <ele>711</ele>
        <time>2012-03-21T14:41:38Z</time>
      </trkpt>
      <trkpt lat="43.60837" lon="6.58477">
        <ele>711.1</ele>
        <time>2012-03-21T14:41:39Z</time>
      </trkpt>
      <trkpt lat="43.60823" lon="6.58466">
        <ele>709.7</ele>
        <time>2012-03-21T14:42:14Z</time>
      </trkpt>
      <trkpt lat="43.60814" lon="6.58467">
        <ele>708.4</ele>
        <time>2012-03-21T14:42:25Z</time>
      </trkpt>
      <trkpt lat="43.60805" lon="6.58466">
        <ele>707.5</ele>
        <time>2012-03-21T14:42:36Z</time>
      </trkpt>
      <trkpt lat="43.60797" lon="6.58463">
        <ele>705.2</ele>
        <time>2012-03-21T14:42:49Z</time>
      </trkpt>
      <trkpt lat="43.60796" lon="6.58463">
        <ele>705.5</ele>
        <time>2012-03-21T14:42:50Z</time>
      </trkpt>
      <trkpt lat="43.6078" lon="6.58458">
        <ele>703.8</ele>
        <time>2012-03-21T14:43:10Z</time>
      </trkpt>
      <trkpt lat="43.60774" lon="6.58452">
        <ele>702.7</ele>
        <time>2012-03-21T14:43:22Z</time>
      </trkpt>
      <trkpt lat="43.60769" lon="6.58442">
        <ele>700.7</ele>
        <time>2012-03-21T14:43:35Z</time>
      </trkpt>
      <trkpt lat="43.60764" lon="6.58432">
        <ele>699.3</ele>
        <time>2012-03-21T14:43:46Z</time>
      </trkpt>
      <trkpt lat="43.60757" lon="6.58425">
        <ele>697.8</ele>
        <time>2012-03-21T14:43:59Z</time>
      </trkpt>
      <trkpt lat="43.60756" lon="6.58425">
        <ele>697.6</ele>
        <time>2012-03-21T14:44:00Z</time>
      </trkpt>
      <trkpt lat="43.60742" lon="6.58413">
        <ele>694.3</ele>
        <time>2012-03-21T14:44:29Z</time>
      </trkpt>
      <trkpt lat="43.60734" lon="6.58408">
        <ele>691.1</ele>
        <time>2012-03-21T14:44:52Z</time>
      </trkpt>
      <trkpt lat="43.60725" lon="6.58406">
        <ele>690.1</ele>
        <time>2012-03-21T14:45:12Z</time>
      </trkpt>
      <trkpt lat="43.60724" lon="6.58406">
        <ele>690.3</ele>
        <time>2012-03-21T14:45:13Z</time>
      </trkpt>
      <trkpt lat="43.60718" lon="6.58428">
        <ele>692.5</ele>
        <time>2012-03-21T14:45:43Z</time>
      </trkpt>
      <trkpt lat="43.60715" lon="6.58439">
        <ele>691.1</ele>
        <time>2012-03-21T14:45:52Z</time>
      </trkpt>
      <trkpt lat="43.60714" lon="6.58452">
        <ele>690.6</ele>
        <time>2012-03-21T14:46:00Z</time>
      </trkpt>
      <trkpt lat="43.60712" lon="6.58464">
        <ele>689.8</ele>
        <time>2012-03-21T14:46:10Z</time>
      </trkpt>
      <trkpt lat="43.60713" lon="6.58476">
        <ele>689.5</ele>
        <time>2012-03-21T14:46:19Z</time>
      </trkpt>
      <trkpt lat="43.60713" lon="6.58477">
        <ele>689.4</ele>
        <time>2012-03-21T14:46:20Z</time>
      </trkpt>
      <trkpt lat="43.60716" lon="6.58498">
        <ele>688.9</ele>
        <time>2012-03-21T14:46:37Z</time>
      </trkpt>
      <trkpt lat="43.6072" lon="6.58509">
        <ele>687.7</ele>
        <time>2012-03-21T14:46:46Z</time>
      </trkpt>
      <trkpt lat="43.60723" lon="6.58521">
        <ele>686.6</ele>
        <time>2012-03-21T14:46:59Z</time>
      </trkpt>
      <trkpt lat="43.60726" lon="6.58532">
        <ele>686.3</ele>
        <time>2012-03-21T14:47:09Z</time>
      </trkpt>
      <trkpt lat="43.60728" lon="6.58543">
        <ele>684.9</ele>
        <time>2012-03-21T14:47:18Z</time>
      </trkpt>
      <trkpt lat="43.60731" lon="6.58554">
        <ele>682.8</ele>
        <time>2012-03-21T14:47:26Z</time>
      </trkpt>
      <trkpt lat="43.60731" lon="6.58555">
        <ele>682.5</ele>
        <time>2012-03-21T14:47:27Z</time>
      </trkpt>
      <trkpt lat="43.60738" lon="6.58574">
        <ele>681.7</ele>
        <time>2012-03-21T14:47:42Z</time>
      </trkpt>
      <trkpt lat="43.60743" lon="6.58583">
        <ele>680.5</ele>
        <time>2012-03-21T14:47:48Z</time>
      </trkpt>
      <trkpt lat="43.60746" lon="6.58593">
        <ele>680.1</ele>
        <time>2012-03-21T14:47:55Z</time>
      </trkpt>
      <trkpt lat="43.60748" lon="6.58605">
        <ele>679.8</ele>
        <time>2012-03-21T14:48:02Z</time>
      </trkpt>
      <trkpt lat="43.6075" lon="6.58617">
        <ele>679.7</ele>
        <time>2012-03-21T14:48:09Z</time>
      </trkpt>
      <trkpt lat="43.6075" lon="6.58628">
        <ele>678.3</ele>
        <time>2012-03-21T14:48:16Z</time>
      </trkpt>
      <trkpt lat="43.60751" lon="6.5864">
        <ele>677.4</ele>
        <time>2012-03-21T14:48:24Z</time>
      </trkpt>
      <trkpt lat="43.6075" lon="6.58652">
        <ele>677</ele>
        <time>2012-03-21T14:48:34Z</time>
      </trkpt>
      <trkpt lat="43.60749" lon="6.58653">
        <ele>676.3</ele>
        <time>2012-03-21T14:48:35Z</time>
      </trkpt>
      <trkpt lat="43.60736" lon="6.5866">
        <ele>674.1</ele>
        <time>2012-03-21T14:48:47Z</time>
      </trkpt>
      <trkpt lat="43.60728" lon="6.58659">
        <ele>673.8</ele>
        <time>2012-03-21T14:48:55Z</time>
      </trkpt>
      <trkpt lat="43.6072" lon="6.58656">
        <ele>672.7</ele>
        <time>2012-03-21T14:49:02Z</time>
      </trkpt>
      <trkpt lat="43.60712" lon="6.58652">
        <ele>671.3</ele>
        <time>2012-03-21T14:49:10Z</time>
      </trkpt>
      <trkpt lat="43.60703" lon="6.58647">
        <ele>670.8</ele>
        <time>2012-03-21T14:49:18Z</time>
      </trkpt>
      <trkpt lat="43.60696" lon="6.58643">
        <ele>669.3</ele>
        <time>2012-03-21T14:49:26Z</time>
      </trkpt>
      <trkpt lat="43.60687" lon="6.58642">
        <ele>668.1</ele>
        <time>2012-03-21T14:49:34Z</time>
      </trkpt>
      <trkpt lat="43.60681" lon="6.58649">
        <ele>668.6</ele>
        <time>2012-03-21T14:49:42Z</time>
      </trkpt>
      <trkpt lat="43.6068" lon="6.58651">
        <ele>668.8</ele>
        <time>2012-03-21T14:49:43Z</time>
      </trkpt>
      <trkpt lat="43.60672" lon="6.5867">
        <ele>665.7</ele>
        <time>2012-03-21T14:49:57Z</time>
      </trkpt>
      <trkpt lat="43.6067" lon="6.58681">
        <ele>664.2</ele>
        <time>2012-03-21T14:50:06Z</time>
      </trkpt>
      <trkpt lat="43.60667" lon="6.58691">
        <ele>663.5</ele>
        <time>2012-03-21T14:50:13Z</time>
      </trkpt>
      <trkpt lat="43.60665" lon="6.58702">
        <ele>663.3</ele>
        <time>2012-03-21T14:50:20Z</time>
      </trkpt>
      <trkpt lat="43.60663" lon="6.58714">
        <ele>662</ele>
        <time>2012-03-21T14:50:27Z</time>
      </trkpt>
      <trkpt lat="43.60661" lon="6.58725">
        <ele>661.6</ele>
        <time>2012-03-21T14:50:33Z</time>
      </trkpt>
      <trkpt lat="43.60659" lon="6.58737">
        <ele>659.4</ele>
        <time>2012-03-21T14:50:41Z</time>
      </trkpt>
      <trkpt lat="43.60657" lon="6.58748">
        <ele>659.8</ele>
        <time>2012-03-21T14:50:49Z</time>
      </trkpt>
      <trkpt lat="43.60657" lon="6.5875">
        <ele>659.6</ele>
        <time>2012-03-21T14:50:50Z</time>
      </trkpt>
      <trkpt lat="43.60657" lon="6.58771">
        <ele>656.7</ele>
        <time>2012-03-21T14:51:03Z</time>
      </trkpt>
      <trkpt lat="43.60658" lon="6.58782">
        <ele>655.7</ele>
        <time>2012-03-21T14:51:10Z</time>
      </trkpt>
      <trkpt lat="43.60661" lon="6.58793">
        <ele>655.9</ele>
        <time>2012-03-21T14:51:16Z</time>
      </trkpt>
      <trkpt lat="43.60664" lon="6.58804">
        <ele>654.3</ele>
        <time>2012-03-21T14:51:24Z</time>
      </trkpt>
      <trkpt lat="43.60666" lon="6.58815">
        <ele>653.5</ele>
        <time>2012-03-21T14:51:32Z</time>
      </trkpt>
      <trkpt lat="43.60669" lon="6.58825">
        <ele>652.3</ele>
        <time>2012-03-21T14:51:40Z</time>
      </trkpt>
      <trkpt lat="43.60674" lon="6.58836">
        <ele>651.3</ele>
        <time>2012-03-21T14:51:48Z</time>
      </trkpt>
      <trkpt lat="43.6068" lon="6.58845">
        <ele>649.3</ele>
        <time>2012-03-21T14:51:57Z</time>
      </trkpt>
      <trkpt lat="43.60681" lon="6.58846">
        <ele>649.4</ele>
        <time>2012-03-21T14:51:58Z</time>
      </trkpt>
      <trkpt lat="43.60695" lon="6.58855">
        <ele>648.3</ele>
        <time>2012-03-21T14:52:12Z</time>
      </trkpt>
      <trkpt lat="43.60703" lon="6.58858">
        <ele>648</ele>
        <time>2012-03-21T14:52:20Z</time>
      </trkpt>
      <trkpt lat="43.60709" lon="6.58866">
        <ele>646.6</ele>
        <time>2012-03-21T14:52:28Z</time>
      </trkpt>
      <trkpt lat="43.60706" lon="6.58878">
        <ele>645.4</ele>
        <time>2012-03-21T14:52:37Z</time>
      </trkpt>
      <trkpt lat="43.60698" lon="6.58881">
        <ele>643.7</ele>
        <time>2012-03-21T14:52:47Z</time>
      </trkpt>
      <trkpt lat="43.60689" lon="6.58884">
        <ele>642.8</ele>
        <time>2012-03-21T14:52:55Z</time>
      </trkpt>
      <trkpt lat="43.60681" lon="6.58885">
        <ele>641.7</ele>
        <time>2012-03-21T14:53:03Z</time>
      </trkpt>
      <trkpt lat="43.6068" lon="6.58886">
        <ele>641.6</ele>
        <time>2012-03-21T14:53:04Z</time>
      </trkpt>
      <trkpt lat="43.60665" lon="6.5889">
        <ele>639.9</ele>
        <time>2012-03-21T14:53:17Z</time>
      </trkpt>
      <trkpt lat="43.60657" lon="6.58888">
        <ele>640.3</ele>
        <time>2012-03-21T14:53:24Z</time>
      </trkpt>
      <trkpt lat="43.60649" lon="6.58884">
        <ele>639.7</ele>
        <time>2012-03-21T14:53:32Z</time>
      </trkpt>
      <trkpt lat="43.60641" lon="6.5888">
        <ele>637.6</ele>
        <time>2012-03-21T14:53:40Z</time>
      </trkpt>
      <trkpt lat="43.60634" lon="6.58872">
        <ele>634.5</ele>
        <time>2012-03-21T14:53:48Z</time>
      </trkpt>
      <trkpt lat="43.60627" lon="6.58866">
        <ele>633.7</ele>
        <time>2012-03-21T14:53:57Z</time>
      </trkpt>
      <trkpt lat="43.60621" lon="6.58858">
        <ele>633.3</ele>
        <time>2012-03-21T14:54:04Z</time>
      </trkpt>
      <trkpt lat="43.6062" lon="6.58856">
        <ele>633.4</ele>
        <time>2012-03-21T14:54:05Z</time>
      </trkpt>
      <trkpt lat="43.60609" lon="6.58841">
        <ele>631.9</ele>
        <time>2012-03-21T14:54:18Z</time>
      </trkpt>
      <trkpt lat="43.60604" lon="6.58832">
        <ele>630.6</ele>
        <time>2012-03-21T14:54:25Z</time>
      </trkpt>
      <trkpt lat="43.60599" lon="6.58823">
        <ele>630.7</ele>
        <time>2012-03-21T14:54:33Z</time>
      </trkpt>
      <trkpt lat="43.60594" lon="6.58814">
        <ele>629.4</ele>
        <time>2012-03-21T14:54:41Z</time>
      </trkpt>
      <trkpt lat="43.60593" lon="6.58825">
        <ele>627.6</ele>
        <time>2012-03-21T14:55:04Z</time>
      </trkpt>
      <trkpt lat="43.60596" lon="6.58837">
        <ele>626.5</ele>
        <time>2012-03-21T14:55:13Z</time>
      </trkpt>
      <trkpt lat="43.60596" lon="6.58838">
        <ele>626.6</ele>
        <time>2012-03-21T14:55:14Z</time>
      </trkpt>
      <trkpt lat="43.60603" lon="6.58858">
        <ele>625.1</ele>
        <time>2012-03-21T14:55:29Z</time>
      </trkpt>
      <trkpt lat="43.60605" lon="6.58868">
        <ele>625</ele>
        <time>2012-03-21T14:55:36Z</time>
      </trkpt>
      <trkpt lat="43.60606" lon="6.5888">
        <ele>623.5</ele>
        <time>2012-03-21T14:55:43Z</time>
      </trkpt>
      <trkpt lat="43.60606" lon="6.58891">
        <ele>623.5</ele>
        <time>2012-03-21T14:55:51Z</time>
      </trkpt>
      <trkpt lat="43.60608" lon="6.58903">
        <ele>622.9</ele>
        <time>2012-03-21T14:55:59Z</time>
      </trkpt>
      <trkpt lat="43.6061" lon="6.58914">
        <ele>621.9</ele>
        <time>2012-03-21T14:56:07Z</time>
      </trkpt>
      <trkpt lat="43.60614" lon="6.58925">
        <ele>621.7</ele>
        <time>2012-03-21T14:56:16Z</time>
      </trkpt>
      <trkpt lat="43.60614" lon="6.58926">
        <ele>621.7</ele>
        <time>2012-03-21T14:56:17Z</time>
      </trkpt>
      <trkpt lat="43.60622" lon="6.58945">
        <ele>617.8</ele>
        <time>2012-03-21T14:56:32Z</time>
      </trkpt>
      <trkpt lat="43.60627" lon="6.58954">
        <ele>617.3</ele>
        <time>2012-03-21T14:56:39Z</time>
      </trkpt>
      <trkpt lat="43.60634" lon="6.58962">
        <ele>616.4</ele>
        <time>2012-03-21T14:56:47Z</time>
      </trkpt>
      <trkpt lat="43.60641" lon="6.58969">
        <ele>615.5</ele>
        <time>2012-03-21T14:56:55Z</time>
      </trkpt>
      <trkpt lat="43.60648" lon="6.58975">
        <ele>615.4</ele>
        <time>2012-03-21T14:57:02Z</time>
      </trkpt>
      <trkpt lat="43.60655" lon="6.58981">
        <ele>615.4</ele>
        <time>2012-03-21T14:57:09Z</time>
      </trkpt>
      <trkpt lat="43.60661" lon="6.58987">
        <ele>615</ele>
        <time>2012-03-21T14:57:16Z</time>
      </trkpt>
      <trkpt lat="43.60667" lon="6.58996">
        <ele>613.9</ele>
        <time>2012-03-21T14:57:24Z</time>
      </trkpt>
      <trkpt lat="43.60668" lon="6.58998">
        <ele>613.8</ele>
        <time>2012-03-21T14:57:25Z</time>
      </trkpt>
      <trkpt lat="43.60669" lon="6.59019">
        <ele>609.6</ele>
        <time>2012-03-21T14:57:42Z</time>
      </trkpt>
      <trkpt lat="43.60663" lon="6.59028">
        <ele>607</ele>
        <time>2012-03-21T14:57:53Z</time>
      </trkpt>
      <trkpt lat="43.60657" lon="6.59035">
        <ele>606.3</ele>
        <time>2012-03-21T14:58:02Z</time>
      </trkpt>
      <trkpt lat="43.60649" lon="6.5904">
        <ele>603.3</ele>
        <time>2012-03-21T14:58:11Z</time>
      </trkpt>
      <trkpt lat="43.60641" lon="6.59044">
        <ele>603.7</ele>
        <time>2012-03-21T14:58:20Z</time>
      </trkpt>
      <trkpt lat="43.60633" lon="6.59049">
        <ele>602</ele>
        <time>2012-03-21T14:58:27Z</time>
      </trkpt>
      <trkpt lat="43.60632" lon="6.59049">
        <ele>602.2</ele>
        <time>2012-03-21T14:58:28Z</time>
      </trkpt>
      <trkpt lat="43.60616" lon="6.59052">
        <ele>599.2</ele>
        <time>2012-03-21T14:58:40Z</time>
      </trkpt>
      <trkpt lat="43.60608" lon="6.59051">
        <ele>599.7</ele>
        <time>2012-03-21T14:58:47Z</time>
      </trkpt>
      <trkpt lat="43.60599" lon="6.59052">
        <ele>597.8</ele>
        <time>2012-03-21T14:58:55Z</time>
      </trkpt>
      <trkpt lat="43.60591" lon="6.59056">
        <ele>596.1</ele>
        <time>2012-03-21T14:59:04Z</time>
      </trkpt>
      <trkpt lat="43.60586" lon="6.59066">
        <ele>594.4</ele>
        <time>2012-03-21T14:59:15Z</time>
      </trkpt>
      <trkpt lat="43.60587" lon="6.59077">
        <ele>593.1</ele>
        <time>2012-03-21T14:59:26Z</time>
      </trkpt>
      <trkpt lat="43.60591" lon="6.59087">
        <ele>592.3</ele>
        <time>2012-03-21T14:59:36Z</time>
      </trkpt>
      <trkpt lat="43.60592" lon="6.59088">
        <ele>591.8</ele>
        <time>2012-03-21T14:59:37Z</time>
      </trkpt>
      <trkpt lat="43.60604" lon="6.59101">
        <ele>590.7</ele>
        <time>2012-03-21T14:59:56Z</time>
      </trkpt>
      <trkpt lat="43.60613" lon="6.59105">
        <ele>589.4</ele>
        <time>2012-03-21T15:00:06Z</time>
      </trkpt>
      <trkpt lat="43.60621" lon="6.59109">
        <ele>588</ele>
        <time>2012-03-21T15:00:15Z</time>
      </trkpt>
      <trkpt lat="43.6063" lon="6.59112">
        <ele>586.3</ele>
        <time>2012-03-21T15:00:23Z</time>
      </trkpt>
      <trkpt lat="43.60637" lon="6.59116">
        <ele>586.3</ele>
        <time>2012-03-21T15:00:31Z</time>
      </trkpt>
      <trkpt lat="43.60645" lon="6.59121">
        <ele>584.9</ele>
        <time>2012-03-21T15:00:39Z</time>
      </trkpt>
      <trkpt lat="43.60647" lon="6.59122">
        <ele>585.1</ele>
        <time>2012-03-21T15:00:40Z</time>
      </trkpt>
      <trkpt lat="43.60662" lon="6.59128">
        <ele>582.2</ele>
        <time>2012-03-21T15:00:56Z</time>
      </trkpt>
      <trkpt lat="43.60671" lon="6.59129">
        <ele>580.5</ele>
        <time>2012-03-21T15:01:05Z</time>
      </trkpt>
      <trkpt lat="43.60678" lon="6.59134">
        <ele>580.6</ele>
        <time>2012-03-21T15:01:13Z</time>
      </trkpt>
      <trkpt lat="43.60687" lon="6.59135">
        <ele>579.5</ele>
        <time>2012-03-21T15:01:21Z</time>
      </trkpt>
      <trkpt lat="43.60696" lon="6.59136">
        <ele>581.2</ele>
        <time>2012-03-21T15:05:29Z</time>
      </trkpt>
      <trkpt lat="43.60696" lon="6.59135">
        <ele>581.3</ele>
        <time>2012-03-21T15:05:30Z</time>
      </trkpt>
      <trkpt lat="43.60708" lon="6.59121">
        <ele>579.2</ele>
        <time>2012-03-21T15:05:46Z</time>
      </trkpt>
      <trkpt lat="43.60714" lon="6.59113">
        <ele>579</ele>
        <time>2012-03-21T15:05:55Z</time>
      </trkpt>
      <trkpt lat="43.60721" lon="6.59105">
        <ele>578</ele>
        <time>2012-03-21T15:06:04Z</time>
      </trkpt>
      <trkpt lat="43.60729" lon="6.59101">
        <ele>578.7</ele>
        <time>2012-03-21T15:06:12Z</time>
      </trkpt>
      <trkpt lat="43.60737" lon="6.59097">
        <ele>578.8</ele>
        <time>2012-03-21T15:06:21Z</time>
      </trkpt>
      <trkpt lat="43.60744" lon="6.59091">
        <ele>579</ele>
        <time>2012-03-21T15:06:29Z</time>
      </trkpt>
      <trkpt lat="43.60752" lon="6.59086">
        <ele>579.6</ele>
        <time>2012-03-21T15:06:39Z</time>
      </trkpt>
      <trkpt lat="43.60753" lon="6.59086">
        <ele>578.9</ele>
        <time>2012-03-21T15:06:40Z</time>
      </trkpt>
      <trkpt lat="43.60767" lon="6.59075">
        <ele>579.3</ele>
        <time>2012-03-21T15:06:56Z</time>
      </trkpt>
      <trkpt lat="43.60775" lon="6.5907">
        <ele>579.3</ele>
        <time>2012-03-21T15:07:03Z</time>
      </trkpt>
      <trkpt lat="43.60781" lon="6.59063">
        <ele>580</ele>
        <time>2012-03-21T15:07:11Z</time>
      </trkpt>
      <trkpt lat="43.60789" lon="6.59058">
        <ele>580.1</ele>
        <time>2012-03-21T15:07:18Z</time>
      </trkpt>
      <trkpt lat="43.60796" lon="6.59053">
        <ele>581</ele>
        <time>2012-03-21T15:07:26Z</time>
      </trkpt>
      <trkpt lat="43.60804" lon="6.59049">
        <ele>581.7</ele>
        <time>2012-03-21T15:07:33Z</time>
      </trkpt>
      <trkpt lat="43.60812" lon="6.59044">
        <ele>581.6</ele>
        <time>2012-03-21T15:07:40Z</time>
      </trkpt>
      <trkpt lat="43.60813" lon="6.59043">
        <ele>581.5</ele>
        <time>2012-03-21T15:07:41Z</time>
      </trkpt>
      <trkpt lat="43.60827" lon="6.59033">
        <ele>581.4</ele>
        <time>2012-03-21T15:07:56Z</time>
      </trkpt>
      <trkpt lat="43.60834" lon="6.59026">
        <ele>581.1</ele>
        <time>2012-03-21T15:08:03Z</time>
      </trkpt>
      <trkpt lat="43.60842" lon="6.59022">
        <ele>580.9</ele>
        <time>2012-03-21T15:08:10Z</time>
      </trkpt>
      <trkpt lat="43.60851" lon="6.59022">
        <ele>581.7</ele>
        <time>2012-03-21T15:08:17Z</time>
      </trkpt>
      <trkpt lat="43.60858" lon="6.59023">
        <ele>583.1</ele>
        <time>2012-03-21T15:08:23Z</time>
      </trkpt>
      <trkpt lat="43.60867" lon="6.59023">
        <ele>582.4</ele>
        <time>2012-03-21T15:08:29Z</time>
      </trkpt>
      <trkpt lat="43.60875" lon="6.59022">
        <ele>583.6</ele>
        <time>2012-03-21T15:08:35Z</time>
      </trkpt>
      <trkpt lat="43.60882" lon="6.59019">
        <ele>584.2</ele>
        <time>2012-03-21T15:08:41Z</time>
      </trkpt>
      <trkpt lat="43.60884" lon="6.59018">
        <ele>583.8</ele>
        <time>2012-03-21T15:08:42Z</time>
      </trkpt>
      <trkpt lat="43.60899" lon="6.59011">
        <ele>584.1</ele>
        <time>2012-03-21T15:08:56Z</time>
      </trkpt>
      <trkpt lat="43.60906" lon="6.59005">
        <ele>583.8</ele>
        <time>2012-03-21T15:09:04Z</time>
      </trkpt>
      <trkpt lat="43.60914" lon="6.59001">
        <ele>586.1</ele>
        <time>2012-03-21T15:09:12Z</time>
      </trkpt>
      <trkpt lat="43.60922" lon="6.58999">
        <ele>586.2</ele>
        <time>2012-03-21T15:09:20Z</time>
      </trkpt>
      <trkpt lat="43.6093" lon="6.59001">
        <ele>586.8</ele>
        <time>2012-03-21T15:09:27Z</time>
      </trkpt>
      <trkpt lat="43.60938" lon="6.59004">
        <ele>587.7</ele>
        <time>2012-03-21T15:09:36Z</time>
      </trkpt>
      <trkpt lat="43.60947" lon="6.59004">
        <ele>588.7</ele>
        <time>2012-03-21T15:09:46Z</time>
      </trkpt>
      <trkpt lat="43.60948" lon="6.59004">
        <ele>588.5</ele>
        <time>2012-03-21T15:09:47Z</time>
      </trkpt>
      <trkpt lat="43.60962" lon="6.58996">
        <ele>590.6</ele>
        <time>2012-03-21T15:10:04Z</time>
      </trkpt>
      <trkpt lat="43.60969" lon="6.58989">
        <ele>590.4</ele>
        <time>2012-03-21T15:10:12Z</time>
      </trkpt>
      <trkpt lat="43.60977" lon="6.58985">
        <ele>590.3</ele>
        <time>2012-03-21T15:10:20Z</time>
      </trkpt>
      <trkpt lat="43.60986" lon="6.58984">
        <ele>591.1</ele>
        <time>2012-03-21T15:10:28Z</time>
      </trkpt>
      <trkpt lat="43.60994" lon="6.58984">
        <ele>589.8</ele>
        <time>2012-03-21T15:10:36Z</time>
      </trkpt>
      <trkpt lat="43.61003" lon="6.58983">
        <ele>589.3</ele>
        <time>2012-03-21T15:10:43Z</time>
      </trkpt>
      <trkpt lat="43.61011" lon="6.58982">
        <ele>590.4</ele>
        <time>2012-03-21T15:10:50Z</time>
      </trkpt>
      <trkpt lat="43.61012" lon="6.58982">
        <ele>590.4</ele>
        <time>2012-03-21T15:10:51Z</time>
      </trkpt>
      <trkpt lat="43.61027" lon="6.58982">
        <ele>590.1</ele>
        <time>2012-03-21T15:11:05Z</time>
      </trkpt>
      <trkpt lat="43.61035" lon="6.58983">
        <ele>589.2</ele>
        <time>2012-03-21T15:11:12Z</time>
      </trkpt>
      <trkpt lat="43.61043" lon="6.58986">
        <ele>590.2</ele>
        <time>2012-03-21T15:11:20Z</time>
      </trkpt>
      <trkpt lat="43.61052" lon="6.5899">
        <ele>590.2</ele>
        <time>2012-03-21T15:11:28Z</time>
      </trkpt>
      <trkpt lat="43.61059" lon="6.58996">
        <ele>591.8</ele>
        <time>2012-03-21T15:11:35Z</time>
      </trkpt>
      <trkpt lat="43.61066" lon="6.59002">
        <ele>591.1</ele>
        <time>2012-03-21T15:11:42Z</time>
      </trkpt>
      <trkpt lat="43.61073" lon="6.59007">
        <ele>591.5</ele>
        <time>2012-03-21T15:11:49Z</time>
      </trkpt>
      <trkpt lat="43.61082" lon="6.59009">
        <ele>592.3</ele>
        <time>2012-03-21T15:11:57Z</time>
      </trkpt>
      <trkpt lat="43.61083" lon="6.59008">
        <ele>592.6</ele>
        <time>2012-03-21T15:11:58Z</time>
      </trkpt>
      <trkpt lat="43.61098" lon="6.59">
        <ele>593.4</ele>
        <time>2012-03-21T15:12:16Z</time>
      </trkpt>
      <trkpt lat="43.61106" lon="6.58996">
        <ele>594.8</ele>
        <time>2012-03-21T15:12:26Z</time>
      </trkpt>
      <trkpt lat="43.61114" lon="6.5899">
        <ele>597</ele>
        <time>2012-03-21T15:12:34Z</time>
      </trkpt>
      <trkpt lat="43.6112" lon="6.58984">
        <ele>598.7</ele>
        <time>2012-03-21T15:12:42Z</time>
      </trkpt>
      <trkpt lat="43.61128" lon="6.58978">
        <ele>600.4</ele>
        <time>2012-03-21T15:12:51Z</time>
      </trkpt>
      <trkpt lat="43.61134" lon="6.5897">
        <ele>600.8</ele>
        <time>2012-03-21T15:13:01Z</time>
      </trkpt>
      <trkpt lat="43.61134" lon="6.58969">
        <ele>600.5</ele>
        <time>2012-03-21T15:13:02Z</time>
      </trkpt>
      <trkpt lat="43.61146" lon="6.58953">
        <ele>603.1</ele>
        <time>2012-03-21T15:13:21Z</time>
      </trkpt>
      <trkpt lat="43.6115" lon="6.58943">
        <ele>605.2</ele>
        <time>2012-03-21T15:13:32Z</time>
      </trkpt>
      <trkpt lat="43.61154" lon="6.58932">
        <ele>607.1</ele>
        <time>2012-03-21T15:13:43Z</time>
      </trkpt>
      <trkpt lat="43.61158" lon="6.58922">
        <ele>608.7</ele>
        <time>2012-03-21T15:13:57Z</time>
      </trkpt>
      <trkpt lat="43.61163" lon="6.58913">
        <ele>609.6</ele>
        <time>2012-03-21T15:14:03Z</time>
      </trkpt>
      <trkpt lat="43.61164" lon="6.58912">
        <ele>609.5</ele>
        <time>2012-03-21T15:14:04Z</time>
      </trkpt>
      <trkpt lat="43.61173" lon="6.58896">
        <ele>612.4</ele>
        <time>2012-03-21T15:14:18Z</time>
      </trkpt>
      <trkpt lat="43.61179" lon="6.58887">
        <ele>613.6</ele>
        <time>2012-03-21T15:14:27Z</time>
      </trkpt>
      <trkpt lat="43.61183" lon="6.58877">
        <ele>614.4</ele>
        <time>2012-03-21T15:14:36Z</time>
      </trkpt>
      <trkpt lat="43.61184" lon="6.58865">
        <ele>615.2</ele>
        <time>2012-03-21T15:14:46Z</time>
      </trkpt>
      <trkpt lat="43.61185" lon="6.58853">
        <ele>617.3</ele>
        <time>2012-03-21T15:14:56Z</time>
      </trkpt>
      <trkpt lat="43.61187" lon="6.58841">
        <ele>617.2</ele>
        <time>2012-03-21T15:15:04Z</time>
      </trkpt>
      <trkpt lat="43.61187" lon="6.5884">
        <ele>617.3</ele>
        <time>2012-03-21T15:15:05Z</time>
      </trkpt>
      <trkpt lat="43.61188" lon="6.58817">
        <ele>619.4</ele>
        <time>2012-03-21T15:15:57Z</time>
      </trkpt>
      <trkpt lat="43.61196" lon="6.58821">
        <ele>618.3</ele>
        <time>2012-03-21T15:17:35Z</time>
      </trkpt>
      <trkpt lat="43.61197" lon="6.58821">
        <ele>618.5</ele>
        <time>2012-03-21T15:17:36Z</time>
      </trkpt>
      <trkpt lat="43.61197" lon="6.58809">
        <ele>618.3</ele>
        <time>2012-03-21T15:18:46Z</time>
      </trkpt>
      <trkpt lat="43.61191" lon="6.5879">
        <ele>616</ele>
        <time>2012-03-21T15:19:03Z</time>
      </trkpt>
      <trkpt lat="43.61193" lon="6.58778">
        <ele>614.9</ele>
        <time>2012-03-21T15:19:14Z</time>
      </trkpt>
      <trkpt lat="43.61196" lon="6.58767">
        <ele>614.2</ele>
        <time>2012-03-21T15:19:23Z</time>
      </trkpt>
      <trkpt lat="43.61201" lon="6.58757">
        <ele>613.3</ele>
        <time>2012-03-21T15:19:32Z</time>
      </trkpt>
      <trkpt lat="43.61207" lon="6.58748">
        <ele>612.1</ele>
        <time>2012-03-21T15:19:41Z</time>
      </trkpt>
      <trkpt lat="43.61212" lon="6.58738">
        <ele>610.2</ele>
        <time>2012-03-21T15:19:50Z</time>
      </trkpt>
      <trkpt lat="43.61212" lon="6.58737">
        <ele>610.4</ele>
        <time>2012-03-21T15:19:51Z</time>
      </trkpt>
      <trkpt lat="43.61223" lon="6.58721">
        <ele>608.9</ele>
        <time>2012-03-21T15:20:06Z</time>
      </trkpt>
      <trkpt lat="43.61225" lon="6.5871">
        <ele>608.6</ele>
        <time>2012-03-21T15:20:14Z</time>
      </trkpt>
      <trkpt lat="43.61228" lon="6.58698">
        <ele>607.5</ele>
        <time>2012-03-21T15:20:21Z</time>
      </trkpt>
      <trkpt lat="43.61227" lon="6.58686">
        <ele>606.4</ele>
        <time>2012-03-21T15:20:31Z</time>
      </trkpt>
      <trkpt lat="43.61225" lon="6.58675">
        <ele>605.6</ele>
        <time>2012-03-21T15:20:41Z</time>
      </trkpt>
      <trkpt lat="43.61228" lon="6.58664">
        <ele>605.6</ele>
        <time>2012-03-21T15:20:48Z</time>
      </trkpt>
      <trkpt lat="43.6123" lon="6.58653">
        <ele>604.4</ele>
        <time>2012-03-21T15:20:54Z</time>
      </trkpt>
      <trkpt lat="43.6123" lon="6.58651">
        <ele>604.5</ele>
        <time>2012-03-21T15:20:55Z</time>
      </trkpt>
      <trkpt lat="43.61231" lon="6.5863">
        <ele>605.8</ele>
        <time>2012-03-21T15:21:08Z</time>
      </trkpt>
      <trkpt lat="43.6123" lon="6.58618">
        <ele>603.5</ele>
        <time>2012-03-21T15:21:16Z</time>
      </trkpt>
      <trkpt lat="43.61231" lon="6.58607">
        <ele>603.2</ele>
        <time>2012-03-21T15:21:23Z</time>
      </trkpt>
      <trkpt lat="43.61233" lon="6.58596">
        <ele>601.9</ele>
        <time>2012-03-21T15:21:29Z</time>
      </trkpt>
      <trkpt lat="43.61235" lon="6.58584">
        <ele>600</ele>
        <time>2012-03-21T15:21:40Z</time>
      </trkpt>
      <trkpt lat="43.61233" lon="6.58573">
        <ele>600.2</ele>
        <time>2012-03-21T15:21:54Z</time>
      </trkpt>
      <trkpt lat="43.61231" lon="6.58561">
        <ele>600.3</ele>
        <time>2012-03-21T15:22:03Z</time>
      </trkpt>
      <trkpt lat="43.61231" lon="6.5856">
        <ele>600.2</ele>
        <time>2012-03-21T15:22:04Z</time>
      </trkpt>
      <trkpt lat="43.61227" lon="6.58539">
        <ele>598.9</ele>
        <time>2012-03-21T15:22:19Z</time>
      </trkpt>
      <trkpt lat="43.61224" lon="6.58529">
        <ele>598.1</ele>
        <time>2012-03-21T15:22:24Z</time>
      </trkpt>
      <trkpt lat="43.61222" lon="6.58518">
        <ele>597.4</ele>
        <time>2012-03-21T15:22:31Z</time>
      </trkpt>
      <trkpt lat="43.61221" lon="6.58507">
        <ele>597</ele>
        <time>2012-03-21T15:22:39Z</time>
      </trkpt>
      <trkpt lat="43.61219" lon="6.58495">
        <ele>594.5</ele>
        <time>2012-03-21T15:22:47Z</time>
      </trkpt>
      <trkpt lat="43.61217" lon="6.58485">
        <ele>595</ele>
        <time>2012-03-21T15:22:54Z</time>
      </trkpt>
      <trkpt lat="43.61218" lon="6.58474">
        <ele>592.5</ele>
        <time>2012-03-21T15:23:00Z</time>
      </trkpt>
      <trkpt lat="43.61215" lon="6.58463">
        <ele>592.2</ele>
        <time>2012-03-21T15:23:09Z</time>
      </trkpt>
      <trkpt lat="43.61214" lon="6.58462">
        <ele>591.7</ele>
        <time>2012-03-21T15:23:10Z</time>
      </trkpt>
      <trkpt lat="43.61212" lon="6.58439">
        <ele>589.7</ele>
        <time>2012-03-21T15:23:23Z</time>
      </trkpt>
      <trkpt lat="43.6121" lon="6.58429">
        <ele>588.7</ele>
        <time>2012-03-21T15:23:29Z</time>
      </trkpt>
      <trkpt lat="43.61209" lon="6.58417">
        <ele>589.9</ele>
        <time>2012-03-21T15:23:37Z</time>
      </trkpt>
      <trkpt lat="43.61206" lon="6.58407">
        <ele>590</ele>
        <time>2012-03-21T15:23:45Z</time>
      </trkpt>
      <trkpt lat="43.61205" lon="6.58396">
        <ele>589.3</ele>
        <time>2012-03-21T15:23:52Z</time>
      </trkpt>
      <trkpt lat="43.61205" lon="6.58384">
        <ele>588.5</ele>
        <time>2012-03-21T15:23:59Z</time>
      </trkpt>
      <trkpt lat="43.61204" lon="6.58374">
        <ele>587.3</ele>
        <time>2012-03-21T15:24:06Z</time>
      </trkpt>
      <trkpt lat="43.61203" lon="6.58362">
        <ele>586.7</ele>
        <time>2012-03-21T15:24:14Z</time>
      </trkpt>
      <trkpt lat="43.61203" lon="6.5836">
        <ele>586.1</ele>
        <time>2012-03-21T15:24:15Z</time>
      </trkpt>
      <trkpt lat="43.61198" lon="6.58341">
        <ele>585.6</ele>
        <time>2012-03-21T15:24:29Z</time>
      </trkpt>
      <trkpt lat="43.61197" lon="6.5833">
        <ele>585.3</ele>
        <time>2012-03-21T15:24:37Z</time>
      </trkpt>
      <trkpt lat="43.61196" lon="6.58319">
        <ele>583.6</ele>
        <time>2012-03-21T15:24:46Z</time>
      </trkpt>
      <trkpt lat="43.61194" lon="6.58307">
        <ele>582.3</ele>
        <time>2012-03-21T15:24:54Z</time>
      </trkpt>
      <trkpt lat="43.61195" lon="6.58296">
        <ele>581.8</ele>
        <time>2012-03-21T15:25:00Z</time>
      </trkpt>
      <trkpt lat="43.61194" lon="6.58284">
        <ele>581.4</ele>
        <time>2012-03-21T15:25:07Z</time>
      </trkpt>
      <trkpt lat="43.61193" lon="6.58272">
        <ele>580.7</ele>
        <time>2012-03-21T15:25:16Z</time>
      </trkpt>
      <trkpt lat="43.61193" lon="6.58271">
        <ele>580.6</ele>
        <time>2012-03-21T15:25:17Z</time>
      </trkpt>
      <trkpt lat="43.61195" lon="6.58248">
        <ele>579</ele>
        <time>2012-03-21T15:25:33Z</time>
      </trkpt>
      <trkpt lat="43.61191" lon="6.58238">
        <ele>578.3</ele>
        <time>2012-03-21T15:25:39Z</time>
      </trkpt>
      <trkpt lat="43.61189" lon="6.58227">
        <ele>577.7</ele>
        <time>2012-03-21T15:25:45Z</time>
      </trkpt>
      <trkpt lat="43.61187" lon="6.58216">
        <ele>577.9</ele>
        <time>2012-03-21T15:25:52Z</time>
      </trkpt>
      <trkpt lat="43.61183" lon="6.58205">
        <ele>577</ele>
        <time>2012-03-21T15:26:00Z</time>
      </trkpt>
      <trkpt lat="43.61181" lon="6.58194">
        <ele>575.7</ele>
        <time>2012-03-21T15:26:09Z</time>
      </trkpt>
      <trkpt lat="43.61176" lon="6.58185">
        <ele>575.5</ele>
        <time>2012-03-21T15:26:15Z</time>
      </trkpt>
      <trkpt lat="43.61174" lon="6.58174">
        <ele>575.4</ele>
        <time>2012-03-21T15:26:22Z</time>
      </trkpt>
      <trkpt lat="43.61175" lon="6.58173">
        <ele>575.4</ele>
        <time>2012-03-21T15:26:23Z</time>
      </trkpt>
      <trkpt lat="43.61168" lon="6.58153">
        <ele>571.9</ele>
        <time>2012-03-21T15:26:36Z</time>
      </trkpt>
      <trkpt lat="43.61164" lon="6.58143">
        <ele>571.6</ele>
        <time>2012-03-21T15:26:46Z</time>
      </trkpt>
      <trkpt lat="43.61164" lon="6.58131">
        <ele>571.2</ele>
        <time>2012-03-21T15:26:56Z</time>
      </trkpt>
      <trkpt lat="43.61159" lon="6.58122">
        <ele>570.1</ele>
        <time>2012-03-21T15:27:05Z</time>
      </trkpt>
      <trkpt lat="43.61156" lon="6.58111">
        <ele>567.3</ele>
        <time>2012-03-21T15:27:13Z</time>
      </trkpt>
      <trkpt lat="43.61156" lon="6.58099">
        <ele>566.4</ele>
        <time>2012-03-21T15:27:23Z</time>
      </trkpt>
      <trkpt lat="43.61156" lon="6.58097">
        <ele>565.9</ele>
        <time>2012-03-21T15:27:24Z</time>
      </trkpt>
      <trkpt lat="43.61158" lon="6.58075">
        <ele>563.2</ele>
        <time>2012-03-21T15:27:40Z</time>
      </trkpt>
      <trkpt lat="43.61158" lon="6.58063">
        <ele>560.9</ele>
        <time>2012-03-21T15:27:52Z</time>
      </trkpt>
      <trkpt lat="43.61157" lon="6.58051">
        <ele>559.1</ele>
        <time>2012-03-21T15:28:03Z</time>
      </trkpt>
      <trkpt lat="43.61157" lon="6.58039">
        <ele>557.6</ele>
        <time>2012-03-21T15:28:13Z</time>
      </trkpt>
      <trkpt lat="43.61155" lon="6.58027">
        <ele>556.3</ele>
        <time>2012-03-21T15:28:22Z</time>
      </trkpt>
      <trkpt lat="43.61157" lon="6.58016">
        <ele>556.3</ele>
        <time>2012-03-21T15:28:29Z</time>
      </trkpt>
      <trkpt lat="43.61157" lon="6.58014">
        <ele>556.5</ele>
        <time>2012-03-21T15:28:30Z</time>
      </trkpt>
      <trkpt lat="43.61161" lon="6.57994">
        <ele>555.2</ele>
        <time>2012-03-21T15:28:44Z</time>
      </trkpt>
      <trkpt lat="43.61164" lon="6.57983">
        <ele>555.6</ele>
        <time>2012-03-21T15:28:54Z</time>
      </trkpt>
      <trkpt lat="43.61166" lon="6.57971">
        <ele>556.6</ele>
        <time>2012-03-21T15:29:08Z</time>
      </trkpt>
      <trkpt lat="43.61169" lon="6.57961">
        <ele>556.6</ele>
        <time>2012-03-21T15:29:17Z</time>
      </trkpt>
      <trkpt lat="43.61168" lon="6.57949">
        <ele>556.5</ele>
        <time>2012-03-21T15:29:25Z</time>
      </trkpt>
      <trkpt lat="43.61168" lon="6.57938">
        <ele>556.3</ele>
        <time>2012-03-21T15:29:32Z</time>
      </trkpt>
      <trkpt lat="43.61168" lon="6.57936">
        <ele>556.5</ele>
        <time>2012-03-21T15:29:33Z</time>
      </trkpt>
      <trkpt lat="43.61167" lon="6.57914">
        <ele>557.1</ele>
        <time>2012-03-21T15:29:49Z</time>
      </trkpt>
      <trkpt lat="43.6117" lon="6.57904">
        <ele>554.9</ele>
        <time>2012-03-21T15:29:55Z</time>
      </trkpt>
      <trkpt lat="43.61172" lon="6.57893">
        <ele>554.8</ele>
        <time>2012-03-21T15:30:02Z</time>
      </trkpt>
      <trkpt lat="43.61174" lon="6.57883">
        <ele>556.4</ele>
        <time>2012-03-21T15:30:08Z</time>
      </trkpt>
      <trkpt lat="43.61177" lon="6.57872">
        <ele>555.1</ele>
        <time>2012-03-21T15:30:15Z</time>
      </trkpt>
      <trkpt lat="43.6118" lon="6.57861">
        <ele>554.6</ele>
        <time>2012-03-21T15:30:23Z</time>
      </trkpt>
      <trkpt lat="43.61178" lon="6.5785">
        <ele>553.4</ele>
        <time>2012-03-21T15:30:32Z</time>
      </trkpt>
      <trkpt lat="43.6118" lon="6.57838">
        <ele>553.5</ele>
        <time>2012-03-21T15:30:47Z</time>
      </trkpt>
      <trkpt lat="43.6118" lon="6.57837">
        <ele>553.3</ele>
        <time>2012-03-21T15:30:48Z</time>
      </trkpt>
      <trkpt lat="43.61185" lon="6.57817">
        <ele>551.5</ele>
        <time>2012-03-21T15:31:05Z</time>
      </trkpt>
      <trkpt lat="43.61187" lon="6.57807">
        <ele>552.1</ele>
        <time>2012-03-21T15:31:12Z</time>
      </trkpt>
      <trkpt lat="43.61186" lon="6.57795">
        <ele>551.6</ele>
        <time>2012-03-21T15:31:19Z</time>
      </trkpt>
      <trkpt lat="43.61188" lon="6.57783">
        <ele>552.6</ele>
        <time>2012-03-21T15:31:27Z</time>
      </trkpt>
      <trkpt lat="43.61189" lon="6.57771">
        <ele>552</ele>
        <time>2012-03-21T15:31:36Z</time>
      </trkpt>
      <trkpt lat="43.6119" lon="6.57759">
        <ele>550.6</ele>
        <time>2012-03-21T15:31:45Z</time>
      </trkpt>
      <trkpt lat="43.61192" lon="6.57748">
        <ele>550.8</ele>
        <time>2012-03-21T15:31:53Z</time>
      </trkpt>
      <trkpt lat="43.61193" lon="6.57747">
        <ele>550.9</ele>
        <time>2012-03-21T15:31:54Z</time>
      </trkpt>
      <trkpt lat="43.612" lon="6.57727">
        <ele>549.4</ele>
        <time>2012-03-21T15:32:08Z</time>
      </trkpt>
      <trkpt lat="43.61202" lon="6.57716">
        <ele>549.5</ele>
        <time>2012-03-21T15:32:16Z</time>
      </trkpt>
      <trkpt lat="43.61204" lon="6.57704">
        <ele>548.7</ele>
        <time>2012-03-21T15:32:25Z</time>
      </trkpt>
      <trkpt lat="43.61207" lon="6.57693">
        <ele>549.2</ele>
        <time>2012-03-21T15:32:32Z</time>
      </trkpt>
      <trkpt lat="43.61211" lon="6.57684">
        <ele>548.3</ele>
        <time>2012-03-21T15:32:38Z</time>
      </trkpt>
      <trkpt lat="43.61215" lon="6.57673">
        <ele>548.6</ele>
        <time>2012-03-21T15:32:44Z</time>
      </trkpt>
      <trkpt lat="43.61217" lon="6.57662">
        <ele>547.1</ele>
        <time>2012-03-21T15:32:53Z</time>
      </trkpt>
      <trkpt lat="43.6122" lon="6.5765">
        <ele>547.4</ele>
        <time>2012-03-21T15:32:59Z</time>
      </trkpt>
      <trkpt lat="43.6122" lon="6.57649">
        <ele>546.8</ele>
        <time>2012-03-21T15:33:00Z</time>
      </trkpt>
      <trkpt lat="43.61224" lon="6.57629">
        <ele>547</ele>
        <time>2012-03-21T15:33:15Z</time>
      </trkpt>
      <trkpt lat="43.61228" lon="6.57618">
        <ele>546.4</ele>
        <time>2012-03-21T15:33:22Z</time>
      </trkpt>
      <trkpt lat="43.61229" lon="6.57607">
        <ele>546.2</ele>
        <time>2012-03-21T15:33:29Z</time>
      </trkpt>
      <trkpt lat="43.61231" lon="6.57595">
        <ele>546.7</ele>
        <time>2012-03-21T15:33:36Z</time>
      </trkpt>
      <trkpt lat="43.61233" lon="6.57585">
        <ele>545.7</ele>
        <time>2012-03-21T15:33:43Z</time>
      </trkpt>
      <trkpt lat="43.61237" lon="6.57574">
        <ele>544.6</ele>
        <time>2012-03-21T15:33:50Z</time>
      </trkpt>
      <trkpt lat="43.61238" lon="6.57561">
        <ele>545.9</ele>
        <time>2012-03-21T15:33:59Z</time>
      </trkpt>
      <trkpt lat="43.61241" lon="6.5755">
        <ele>544.8</ele>
        <time>2012-03-21T15:34:07Z</time>
      </trkpt>
      <trkpt lat="43.61242" lon="6.57549">
        <ele>544.3</ele>
        <time>2012-03-21T15:34:08Z</time>
      </trkpt>
      <trkpt lat="43.61245" lon="6.57529">
        <ele>545.5</ele>
        <time>2012-03-21T15:34:19Z</time>
      </trkpt>
      <trkpt lat="43.61246" lon="6.57518">
        <ele>545.1</ele>
        <time>2012-03-21T15:34:25Z</time>
      </trkpt>
      <trkpt lat="43.61247" lon="6.57507">
        <ele>545.5</ele>
        <time>2012-03-21T15:34:30Z</time>
      </trkpt>
      <trkpt lat="43.61249" lon="6.57496">
        <ele>545.6</ele>
        <time>2012-03-21T15:34:36Z</time>
      </trkpt>
      <trkpt lat="43.61251" lon="6.57484">
        <ele>545.6</ele>
        <time>2012-03-21T15:34:44Z</time>
      </trkpt>
      <trkpt lat="43.61248" lon="6.57473">
        <ele>545.5</ele>
        <time>2012-03-21T15:34:53Z</time>
      </trkpt>
      <trkpt lat="43.61248" lon="6.57462">
        <ele>546.2</ele>
        <time>2012-03-21T15:34:59Z</time>
      </trkpt>
      <trkpt lat="43.61249" lon="6.57451">
        <ele>546.4</ele>
        <time>2012-03-21T15:35:06Z</time>
      </trkpt>
      <trkpt lat="43.61251" lon="6.57439">
        <ele>546.7</ele>
        <time>2012-03-21T15:35:13Z</time>
      </trkpt>
      <trkpt lat="43.61252" lon="6.57437">
        <ele>546.3</ele>
        <time>2012-03-21T15:35:14Z</time>
      </trkpt>
      <trkpt lat="43.61255" lon="6.57416">
        <ele>546.6</ele>
        <time>2012-03-21T15:35:29Z</time>
      </trkpt>
      <trkpt lat="43.61252" lon="6.57404">
        <ele>546.1</ele>
        <time>2012-03-21T15:35:37Z</time>
      </trkpt>
      <trkpt lat="43.61253" lon="6.57392">
        <ele>546.3</ele>
        <time>2012-03-21T15:35:45Z</time>
      </trkpt>
      <trkpt lat="43.61252" lon="6.5738">
        <ele>546.6</ele>
        <time>2012-03-21T15:35:53Z</time>
      </trkpt>
      <trkpt lat="43.61248" lon="6.5737">
        <ele>545.6</ele>
        <time>2012-03-21T15:36:00Z</time>
      </trkpt>
      <trkpt lat="43.61247" lon="6.57358">
        <ele>544.4</ele>
        <time>2012-03-21T15:36:07Z</time>
      </trkpt>
      <trkpt lat="43.61242" lon="6.57348">
        <ele>544.5</ele>
        <time>2012-03-21T15:36:13Z</time>
      </trkpt>
      <trkpt lat="43.6124" lon="6.57336">
        <ele>543.7</ele>
        <time>2012-03-21T15:36:19Z</time>
      </trkpt>
      <trkpt lat="43.6124" lon="6.57334">
        <ele>543.8</ele>
        <time>2012-03-21T15:36:20Z</time>
      </trkpt>
      <trkpt lat="43.61239" lon="6.57313">
        <ele>542.4</ele>
        <time>2012-03-21T15:36:35Z</time>
      </trkpt>
      <trkpt lat="43.61237" lon="6.57301">
        <ele>542.3</ele>
        <time>2012-03-21T15:36:43Z</time>
      </trkpt>
      <trkpt lat="43.61235" lon="6.5729">
        <ele>541.2</ele>
        <time>2012-03-21T15:36:51Z</time>
      </trkpt>
      <trkpt lat="43.61231" lon="6.57279">
        <ele>541</ele>
        <time>2012-03-21T15:36:59Z</time>
      </trkpt>
      <trkpt lat="43.61226" lon="6.5727">
        <ele>540.7</ele>
        <time>2012-03-21T15:37:06Z</time>
      </trkpt>
      <trkpt lat="43.61223" lon="6.57258">
        <ele>540.5</ele>
        <time>2012-03-21T15:37:16Z</time>
      </trkpt>
      <trkpt lat="43.61223" lon="6.57247">
        <ele>540.6</ele>
        <time>2012-03-21T15:37:27Z</time>
      </trkpt>
      <trkpt lat="43.61224" lon="6.57246">
        <ele>540.6</ele>
        <time>2012-03-21T15:37:28Z</time>
      </trkpt>
      <trkpt lat="43.61224" lon="6.57225">
        <ele>541.6</ele>
        <time>2012-03-21T15:37:41Z</time>
      </trkpt>
      <trkpt lat="43.61227" lon="6.57214">
        <ele>541.5</ele>
        <time>2012-03-21T15:37:46Z</time>
      </trkpt>
      <trkpt lat="43.6123" lon="6.57203">
        <ele>543</ele>
        <time>2012-03-21T15:37:54Z</time>
      </trkpt>
      <trkpt lat="43.61228" lon="6.57191">
        <ele>544.3</ele>
        <time>2012-03-21T15:38:02Z</time>
      </trkpt>
      <trkpt lat="43.61229" lon="6.5718">
        <ele>544.5</ele>
        <time>2012-03-21T15:38:10Z</time>
      </trkpt>
      <trkpt lat="43.61229" lon="6.57168">
        <ele>544</ele>
        <time>2012-03-21T15:38:17Z</time>
      </trkpt>
      <trkpt lat="43.61228" lon="6.57157">
        <ele>543.4</ele>
        <time>2012-03-21T15:38:25Z</time>
      </trkpt>
      <trkpt lat="43.61226" lon="6.57145">
        <ele>543.2</ele>
        <time>2012-03-21T15:38:33Z</time>
      </trkpt>
      <trkpt lat="43.61226" lon="6.57143">
        <ele>543</ele>
        <time>2012-03-21T15:38:34Z</time>
      </trkpt>
      <trkpt lat="43.61231" lon="6.57123">
        <ele>541</ele>
        <time>2012-03-21T15:38:47Z</time>
      </trkpt>
      <trkpt lat="43.61232" lon="6.5711">
        <ele>542.8</ele>
        <time>2012-03-21T15:38:54Z</time>
      </trkpt>
      <trkpt lat="43.6123" lon="6.571">
        <ele>541.5</ele>
        <time>2012-03-21T15:39:01Z</time>
      </trkpt>
      <trkpt lat="43.61228" lon="6.57089">
        <ele>542</ele>
        <time>2012-03-21T15:39:08Z</time>
      </trkpt>
      <trkpt lat="43.61228" lon="6.57078">
        <ele>541.3</ele>
        <time>2012-03-21T15:39:15Z</time>
      </trkpt>
      <trkpt lat="43.61227" lon="6.57066">
        <ele>541.1</ele>
        <time>2012-03-21T15:39:22Z</time>
      </trkpt>
      <trkpt lat="43.61228" lon="6.57054">
        <ele>540.4</ele>
        <time>2012-03-21T15:39:29Z</time>
      </trkpt>
      <trkpt lat="43.61226" lon="6.57043">
        <ele>537.8</ele>
        <time>2012-03-21T15:39:36Z</time>
      </trkpt>
      <trkpt lat="43.61226" lon="6.57041">
        <ele>537.4</ele>
        <time>2012-03-21T15:39:37Z</time>
      </trkpt>
      <trkpt lat="43.61227" lon="6.57019">
        <ele>537.7</ele>
        <time>2012-03-21T15:39:48Z</time>
      </trkpt>
      <trkpt lat="43.61222" lon="6.5701">
        <ele>537.7</ele>
        <time>2012-03-21T15:39:54Z</time>
      </trkpt>
      <trkpt lat="43.61219" lon="6.56999">
        <ele>535.6</ele>
        <time>2012-03-21T15:40:03Z</time>
      </trkpt>
      <trkpt lat="43.61218" lon="6.56988">
        <ele>534.3</ele>
        <time>2012-03-21T15:40:11Z</time>
      </trkpt>
      <trkpt lat="43.61218" lon="6.56977">
        <ele>534.6</ele>
        <time>2012-03-21T15:40:17Z</time>
      </trkpt>
      <trkpt lat="43.61217" lon="6.56965">
        <ele>533.6</ele>
        <time>2012-03-21T15:40:25Z</time>
      </trkpt>
      <trkpt lat="43.61217" lon="6.56953">
        <ele>532.4</ele>
        <time>2012-03-21T15:40:32Z</time>
      </trkpt>
      <trkpt lat="43.61214" lon="6.56942">
        <ele>532.7</ele>
        <time>2012-03-21T15:40:39Z</time>
      </trkpt>
      <trkpt lat="43.61213" lon="6.56941">
        <ele>532.5</ele>
        <time>2012-03-21T15:40:40Z</time>
      </trkpt>
      <trkpt lat="43.61213" lon="6.56918">
        <ele>528.7</ele>
        <time>2012-03-21T15:41:12Z</time>
      </trkpt>
      <trkpt lat="43.61213" lon="6.56906">
        <ele>527.5</ele>
        <time>2012-03-21T15:41:24Z</time>
      </trkpt>
      <trkpt lat="43.61215" lon="6.56894">
        <ele>526.2</ele>
        <time>2012-03-21T15:41:32Z</time>
      </trkpt>
      <trkpt lat="43.61217" lon="6.56883">
        <ele>524.6</ele>
        <time>2012-03-21T15:41:39Z</time>
      </trkpt>
      <trkpt lat="43.61218" lon="6.56871">
        <ele>522.9</ele>
        <time>2012-03-21T15:41:46Z</time>
      </trkpt>
      <trkpt lat="43.61218" lon="6.56869">
        <ele>522.3</ele>
        <time>2012-03-21T15:41:47Z</time>
      </trkpt>
      <trkpt lat="43.61218" lon="6.56849">
        <ele>521.4</ele>
        <time>2012-03-21T15:42:01Z</time>
      </trkpt>
      <trkpt lat="43.61218" lon="6.56836">
        <ele>519.7</ele>
        <time>2012-03-21T15:42:11Z</time>
      </trkpt>
      <trkpt lat="43.61219" lon="6.56825">
        <ele>519</ele>
        <time>2012-03-21T15:42:20Z</time>
      </trkpt>
      <trkpt lat="43.6122" lon="6.56813">
        <ele>517.9</ele>
        <time>2012-03-21T15:42:28Z</time>
      </trkpt>
      <trkpt lat="43.61221" lon="6.56802">
        <ele>515.4</ele>
        <time>2012-03-21T15:42:36Z</time>
      </trkpt>
      <trkpt lat="43.6122" lon="6.56791">
        <ele>515.6</ele>
        <time>2012-03-21T15:42:43Z</time>
      </trkpt>
      <trkpt lat="43.61219" lon="6.56779">
        <ele>512.1</ele>
        <time>2012-03-21T15:42:53Z</time>
      </trkpt>
      <trkpt lat="43.6122" lon="6.56777">
        <ele>512</ele>
        <time>2012-03-21T15:42:54Z</time>
      </trkpt>
      <trkpt lat="43.61223" lon="6.56757">
        <ele>510.6</ele>
        <time>2012-03-21T15:43:06Z</time>
      </trkpt>
      <trkpt lat="43.61219" lon="6.56746">
        <ele>507.6</ele>
        <time>2012-03-21T15:43:15Z</time>
      </trkpt>
      <trkpt lat="43.61218" lon="6.56735">
        <ele>507.3</ele>
        <time>2012-03-21T15:43:25Z</time>
      </trkpt>
      <trkpt lat="43.6122" lon="6.56724">
        <ele>504.5</ele>
        <time>2012-03-21T15:43:32Z</time>
      </trkpt>
      <trkpt lat="43.61221" lon="6.56712">
        <ele>502.4</ele>
        <time>2012-03-21T15:43:39Z</time>
      </trkpt>
      <trkpt lat="43.61222" lon="6.567">
        <ele>500.3</ele>
        <time>2012-03-21T15:43:46Z</time>
      </trkpt>
      <trkpt lat="43.61224" lon="6.56688">
        <ele>498.5</ele>
        <time>2012-03-21T15:43:54Z</time>
      </trkpt>
      <trkpt lat="43.61225" lon="6.56687">
        <ele>498.1</ele>
        <time>2012-03-21T15:43:55Z</time>
      </trkpt>
      <trkpt lat="43.61224" lon="6.56664">
        <ele>495.9</ele>
        <time>2012-03-21T15:44:10Z</time>
      </trkpt>
      <trkpt lat="43.61224" lon="6.56653">
        <ele>493.6</ele>
        <time>2012-03-21T15:44:18Z</time>
      </trkpt>
      <trkpt lat="43.61224" lon="6.56641">
        <ele>491.2</ele>
        <time>2012-03-21T15:44:29Z</time>
      </trkpt>
      <trkpt lat="43.61221" lon="6.5663">
        <ele>488.5</ele>
        <time>2012-03-21T15:44:39Z</time>
      </trkpt>
      <trkpt lat="43.61218" lon="6.56619">
        <ele>485.6</ele>
        <time>2012-03-21T15:44:49Z</time>
      </trkpt>
      <trkpt lat="43.61212" lon="6.5661">
        <ele>483.6</ele>
        <time>2012-03-21T15:44:57Z</time>
      </trkpt>
      <trkpt lat="43.61212" lon="6.56609">
        <ele>483.5</ele>
        <time>2012-03-21T15:44:58Z</time>
      </trkpt>
      <trkpt lat="43.61208" lon="6.56589">
        <ele>480.3</ele>
        <time>2012-03-21T15:45:13Z</time>
      </trkpt>
      <trkpt lat="43.6121" lon="6.56577">
        <ele>478.6</ele>
        <time>2012-03-21T15:45:21Z</time>
      </trkpt>
      <trkpt lat="43.61208" lon="6.56566">
        <ele>476</ele>
        <time>2012-03-21T15:45:32Z</time>
      </trkpt>
      <trkpt lat="43.61205" lon="6.56554">
        <ele>472</ele>
        <time>2012-03-21T15:45:43Z</time>
      </trkpt>
      <trkpt lat="43.61202" lon="6.56543">
        <ele>468.4</ele>
        <time>2012-03-21T15:45:57Z</time>
      </trkpt>
      <trkpt lat="43.61196" lon="6.56534">
        <ele>465.6</ele>
        <time>2012-03-21T15:46:11Z</time>
      </trkpt>
      <trkpt lat="43.61196" lon="6.56533">
        <ele>464.8</ele>
        <time>2012-03-21T15:46:12Z</time>
      </trkpt>
      <trkpt lat="43.61192" lon="6.5651">
        <ele>459.4</ele>
        <time>2012-03-21T15:46:33Z</time>
      </trkpt>
      <trkpt lat="43.6119" lon="6.56499">
        <ele>458.9</ele>
        <time>2012-03-21T15:46:44Z</time>
      </trkpt>
      <trkpt lat="43.61185" lon="6.56489">
        <ele>455.6</ele>
        <time>2012-03-21T15:46:55Z</time>
      </trkpt>
      <trkpt lat="43.61181" lon="6.56478">
        <ele>455.3</ele>
        <time>2012-03-21T15:47:06Z</time>
      </trkpt>
      <trkpt lat="43.61181" lon="6.56467">
        <ele>453.8</ele>
        <time>2012-03-21T15:47:14Z</time>
      </trkpt>
      <trkpt lat="43.61181" lon="6.56465">
        <ele>454</ele>
        <time>2012-03-21T15:47:15Z</time>
      </trkpt>
      <trkpt lat="43.61186" lon="6.56445">
        <ele>453.7</ele>
        <time>2012-03-21T15:47:25Z</time>
      </trkpt>
      <trkpt lat="43.61188" lon="6.56435">
        <ele>452.9</ele>
        <time>2012-03-21T15:47:30Z</time>
      </trkpt>
      <trkpt lat="43.61189" lon="6.56423">
        <ele>451.2</ele>
        <time>2012-03-21T15:47:37Z</time>
      </trkpt>
      <trkpt lat="43.61185" lon="6.56413">
        <ele>451.7</ele>
        <time>2012-03-21T15:47:45Z</time>
      </trkpt>
      <trkpt lat="43.61184" lon="6.56402">
        <ele>449.1</ele>
        <time>2012-03-21T15:47:53Z</time>
      </trkpt>
      <trkpt lat="43.61184" lon="6.5639">
        <ele>448</ele>
        <time>2012-03-21T15:48:01Z</time>
      </trkpt>
      <trkpt lat="43.61185" lon="6.56379">
        <ele>445.3</ele>
        <time>2012-03-21T15:48:10Z</time>
      </trkpt>
      <trkpt lat="43.61183" lon="6.56367">
        <ele>443.1</ele>
        <time>2012-03-21T15:48:19Z</time>
      </trkpt>
      <trkpt lat="43.61183" lon="6.56366">
        <ele>442.8</ele>
        <time>2012-03-21T15:48:20Z</time>
      </trkpt>
      <trkpt lat="43.61179" lon="6.56346">
        <ele>441.2</ele>
        <time>2012-03-21T15:48:36Z</time>
      </trkpt>
      <trkpt lat="43.61178" lon="6.56334">
        <ele>441.3</ele>
        <time>2012-03-21T15:48:42Z</time>
      </trkpt>
      <trkpt lat="43.61176" lon="6.56324">
        <ele>439.6</ele>
        <time>2012-03-21T15:48:47Z</time>
      </trkpt>
      <trkpt lat="43.61177" lon="6.56313">
        <ele>437.9</ele>
        <time>2012-03-21T15:48:53Z</time>
      </trkpt>
      <trkpt lat="43.61177" lon="6.56302">
        <ele>437.6</ele>
        <time>2012-03-21T15:49:00Z</time>
      </trkpt>
      <trkpt lat="43.61177" lon="6.5629">
        <ele>435.5</ele>
        <time>2012-03-21T15:49:07Z</time>
      </trkpt>
      <trkpt lat="43.61179" lon="6.56279">
        <ele>435</ele>
        <time>2012-03-21T15:49:16Z</time>
      </trkpt>
      <trkpt lat="43.61181" lon="6.56267">
        <ele>432.6</ele>
        <time>2012-03-21T15:49:24Z</time>
      </trkpt>
      <trkpt lat="43.61181" lon="6.56266">
        <ele>432.3</ele>
        <time>2012-03-21T15:49:25Z</time>
      </trkpt>
      <trkpt lat="43.61181" lon="6.56244">
        <ele>428</ele>
        <time>2012-03-21T15:49:43Z</time>
      </trkpt>
      <trkpt lat="43.61181" lon="6.56232">
        <ele>426.4</ele>
        <time>2012-03-21T15:49:54Z</time>
      </trkpt>
      <trkpt lat="43.61177" lon="6.5622">
        <ele>424.6</ele>
        <time>2012-03-21T15:50:06Z</time>
      </trkpt>
      <trkpt lat="43.61176" lon="6.56208">
        <ele>420.5</ele>
        <time>2012-03-21T15:50:20Z</time>
      </trkpt>
      <trkpt lat="43.61172" lon="6.56197">
        <ele>419</ele>
        <time>2012-03-21T15:50:30Z</time>
      </trkpt>
      <trkpt lat="43.61172" lon="6.56196">
        <ele>418.9</ele>
        <time>2012-03-21T15:50:31Z</time>
      </trkpt>
      <trkpt lat="43.6117" lon="6.56174">
        <ele>413.7</ele>
        <time>2012-03-21T15:50:48Z</time>
      </trkpt>
      <trkpt lat="43.61171" lon="6.56163">
        <ele>412.6</ele>
        <time>2012-03-21T15:50:55Z</time>
      </trkpt>
      <trkpt lat="43.6117" lon="6.56151">
        <ele>409.3</ele>
        <time>2012-03-21T15:51:02Z</time>
      </trkpt>
      <trkpt lat="43.6117" lon="6.5614">
        <ele>408.7</ele>
        <time>2012-03-21T15:51:11Z</time>
      </trkpt>
      <trkpt lat="43.6117" lon="6.56128">
        <ele>406.4</ele>
        <time>2012-03-21T15:51:19Z</time>
      </trkpt>
      <trkpt lat="43.61171" lon="6.56116">
        <ele>404.6</ele>
        <time>2012-03-21T15:51:27Z</time>
      </trkpt>
      <trkpt lat="43.6117" lon="6.56104">
        <ele>401.7</ele>
        <time>2012-03-21T15:51:36Z</time>
      </trkpt>
      <trkpt lat="43.6117" lon="6.56103">
        <ele>401.7</ele>
        <time>2012-03-21T15:51:37Z</time>
      </trkpt>
      <trkpt lat="43.61166" lon="6.56082">
        <ele>397.9</ele>
        <time>2012-03-21T15:51:54Z</time>
      </trkpt>
      <trkpt lat="43.61163" lon="6.56071">
        <ele>395.9</ele>
        <time>2012-03-21T15:52:04Z</time>
      </trkpt>
      <trkpt lat="43.61161" lon="6.5606">
        <ele>393.9</ele>
        <time>2012-03-21T15:52:13Z</time>
      </trkpt>
      <trkpt lat="43.61156" lon="6.5605">
        <ele>393.1</ele>
        <time>2012-03-21T15:52:20Z</time>
      </trkpt>
      <trkpt lat="43.61151" lon="6.5604">
        <ele>391.4</ele>
        <time>2012-03-21T15:52:29Z</time>
      </trkpt>
      <trkpt lat="43.61144" lon="6.56035">
        <ele>392.1</ele>
        <time>2012-03-21T15:52:38Z</time>
      </trkpt>
      <trkpt lat="43.61143" lon="6.56034">
        <ele>392</ele>
        <time>2012-03-21T15:52:39Z</time>
      </trkpt>
      <trkpt lat="43.61128" lon="6.56029">
        <ele>389.9</ele>
        <time>2012-03-21T15:52:51Z</time>
      </trkpt>
      <trkpt lat="43.61121" lon="6.56022">
        <ele>389.8</ele>
        <time>2012-03-21T15:53:00Z</time>
      </trkpt>
      <trkpt lat="43.61116" lon="6.56012">
        <ele>389.2</ele>
        <time>2012-03-21T15:53:11Z</time>
      </trkpt>
      <trkpt lat="43.6111" lon="6.56006">
        <ele>387.4</ele>
        <time>2012-03-21T15:53:16Z</time>
      </trkpt>
      <trkpt lat="43.61103" lon="6.56">
        <ele>387.6</ele>
        <time>2012-03-21T15:53:21Z</time>
      </trkpt>
      <trkpt lat="43.61096" lon="6.55995">
        <ele>386.8</ele>
        <time>2012-03-21T15:53:27Z</time>
      </trkpt>
      <trkpt lat="43.61087" lon="6.55993">
        <ele>386</ele>
        <time>2012-03-21T15:53:37Z</time>
      </trkpt>
      <trkpt lat="43.6108" lon="6.55985">
        <ele>384.1</ele>
        <time>2012-03-21T15:53:52Z</time>
      </trkpt>
      <trkpt lat="43.61079" lon="6.55985">
        <ele>383.7</ele>
        <time>2012-03-21T15:53:53Z</time>
      </trkpt>
      <trkpt lat="43.6108" lon="6.5598">
        <ele>385.5</ele>
        <time>2012-03-21T15:56:36Z</time>
      </trkpt>
      <trkpt lat="43.61081" lon="6.5598">
        <ele>385.4</ele>
        <time>2012-03-21T15:56:37Z</time>
      </trkpt>
      <trkpt lat="43.6108" lon="6.55977">
        <ele>384.5</ele>
        <time>2012-03-21T15:57:53Z</time>
      </trkpt>
      <trkpt lat="43.61079" lon="6.55976">
        <ele>384.9</ele>
        <time>2012-03-21T15:57:54Z</time>
      </trkpt>
      <trkpt lat="43.61071" lon="6.55975">
        <ele>385.8</ele>
        <time>2012-03-21T15:59:36Z</time>
      </trkpt>
      <trkpt lat="43.61054" lon="6.55971">
        <ele>386.1</ele>
        <time>2012-03-21T15:59:56Z</time>
      </trkpt>
      <trkpt lat="43.61046" lon="6.55969">
        <ele>385</ele>
        <time>2012-03-21T16:00:05Z</time>
      </trkpt>
      <trkpt lat="43.61038" lon="6.55966">
        <ele>386.7</ele>
        <time>2012-03-21T16:00:13Z</time>
      </trkpt>
      <trkpt lat="43.6103" lon="6.55964">
        <ele>386.2</ele>
        <time>2012-03-21T16:00:22Z</time>
      </trkpt>
      <trkpt lat="43.61022" lon="6.55963">
        <ele>386.7</ele>
        <time>2012-03-21T16:00:30Z</time>
      </trkpt>
      <trkpt lat="43.61013" lon="6.55964">
        <ele>387.6</ele>
        <time>2012-03-21T16:00:38Z</time>
      </trkpt>
      <trkpt lat="43.61012" lon="6.55964">
        <ele>387.9</ele>
        <time>2012-03-21T16:00:39Z</time>
      </trkpt>
      <trkpt lat="43.60997" lon="6.55967">
        <ele>387.9</ele>
        <time>2012-03-21T16:00:54Z</time>
      </trkpt>
      <trkpt lat="43.60988" lon="6.5597">
        <ele>388.2</ele>
        <time>2012-03-21T16:01:02Z</time>
      </trkpt>
      <trkpt lat="43.60981" lon="6.55973">
        <ele>388.5</ele>
        <time>2012-03-21T16:01:07Z</time>
      </trkpt>
      <trkpt lat="43.60972" lon="6.55976">
        <ele>389.8</ele>
        <time>2012-03-21T16:01:12Z</time>
      </trkpt>
      <trkpt lat="43.60965" lon="6.5598">
        <ele>389.3</ele>
        <time>2012-03-21T16:01:17Z</time>
      </trkpt>
      <trkpt lat="43.60958" lon="6.55985">
        <ele>389.2</ele>
        <time>2012-03-21T16:01:23Z</time>
      </trkpt>
      <trkpt lat="43.60951" lon="6.55991">
        <ele>388.7</ele>
        <time>2012-03-21T16:01:30Z</time>
      </trkpt>
      <trkpt lat="43.60944" lon="6.55997">
        <ele>389</ele>
        <time>2012-03-21T16:01:37Z</time>
      </trkpt>
      <trkpt lat="43.60937" lon="6.56003">
        <ele>389.2</ele>
        <time>2012-03-21T16:01:45Z</time>
      </trkpt>
      <trkpt lat="43.60936" lon="6.56004">
        <ele>389.7</ele>
        <time>2012-03-21T16:01:46Z</time>
      </trkpt>
      <trkpt lat="43.60924" lon="6.56018">
        <ele>389.4</ele>
        <time>2012-03-21T16:01:59Z</time>
      </trkpt>
      <trkpt lat="43.60919" lon="6.56025">
        <ele>389.9</ele>
        <time>2012-03-21T16:02:06Z</time>
      </trkpt>
      <trkpt lat="43.60911" lon="6.5603">
        <ele>390.6</ele>
        <time>2012-03-21T16:02:13Z</time>
      </trkpt>
      <trkpt lat="43.60904" lon="6.56036">
        <ele>391.3</ele>
        <time>2012-03-21T16:02:20Z</time>
      </trkpt>
      <trkpt lat="43.60898" lon="6.56044">
        <ele>389.7</ele>
        <time>2012-03-21T16:02:26Z</time>
      </trkpt>
      <trkpt lat="43.60892" lon="6.5605">
        <ele>390</ele>
        <time>2012-03-21T16:02:32Z</time>
      </trkpt>
      <trkpt lat="43.60885" lon="6.56057">
        <ele>390.4</ele>
        <time>2012-03-21T16:02:39Z</time>
      </trkpt>
      <trkpt lat="43.60878" lon="6.56062">
        <ele>391.5</ele>
        <time>2012-03-21T16:02:45Z</time>
      </trkpt>
      <trkpt lat="43.6087" lon="6.56068">
        <ele>391.1</ele>
        <time>2012-03-21T16:02:51Z</time>
      </trkpt>
      <trkpt lat="43.60869" lon="6.56068">
        <ele>391.1</ele>
        <time>2012-03-21T16:02:52Z</time>
      </trkpt>
      <trkpt lat="43.60854" lon="6.56075">
        <ele>392.7</ele>
        <time>2012-03-21T16:03:05Z</time>
      </trkpt>
      <trkpt lat="43.60846" lon="6.56079">
        <ele>392.5</ele>
        <time>2012-03-21T16:03:12Z</time>
      </trkpt>
      <trkpt lat="43.60838" lon="6.56083">
        <ele>392.2</ele>
        <time>2012-03-21T16:03:21Z</time>
      </trkpt>
      <trkpt lat="43.60831" lon="6.56089">
        <ele>391.7</ele>
        <time>2012-03-21T16:03:28Z</time>
      </trkpt>
      <trkpt lat="43.60823" lon="6.56094">
        <ele>392.7</ele>
        <time>2012-03-21T16:03:36Z</time>
      </trkpt>
      <trkpt lat="43.60815" lon="6.56098">
        <ele>393.8</ele>
        <time>2012-03-21T16:03:43Z</time>
      </trkpt>
      <trkpt lat="43.60807" lon="6.56102">
        <ele>392.9</ele>
        <time>2012-03-21T16:03:51Z</time>
      </trkpt>
      <trkpt lat="43.60799" lon="6.56107">
        <ele>394.5</ele>
        <time>2012-03-21T16:03:59Z</time>
      </trkpt>
      <trkpt lat="43.60798" lon="6.56107">
        <ele>394</ele>
        <time>2012-03-21T16:04:00Z</time>
      </trkpt>
      <trkpt lat="43.60784" lon="6.56117">
        <ele>393.9</ele>
        <time>2012-03-21T16:04:14Z</time>
      </trkpt>
      <trkpt lat="43.60778" lon="6.56125">
        <ele>394.3</ele>
        <time>2012-03-21T16:04:21Z</time>
      </trkpt>
      <trkpt lat="43.60771" lon="6.56132">
        <ele>395.5</ele>
        <time>2012-03-21T16:04:29Z</time>
      </trkpt>
      <trkpt lat="43.60764" lon="6.56139">
        <ele>394.7</ele>
        <time>2012-03-21T16:04:36Z</time>
      </trkpt>
      <trkpt lat="43.60758" lon="6.56147">
        <ele>394.8</ele>
        <time>2012-03-21T16:04:44Z</time>
      </trkpt>
      <trkpt lat="43.60752" lon="6.56156">
        <ele>394.8</ele>
        <time>2012-03-21T16:04:51Z</time>
      </trkpt>
      <trkpt lat="43.60746" lon="6.56163">
        <ele>395.2</ele>
        <time>2012-03-21T16:04:58Z</time>
      </trkpt>
      <trkpt lat="43.6074" lon="6.56171">
        <ele>395.4</ele>
        <time>2012-03-21T16:05:05Z</time>
      </trkpt>
      <trkpt lat="43.60739" lon="6.56172">
        <ele>396.5</ele>
        <time>2012-03-21T16:05:06Z</time>
      </trkpt>
      <trkpt lat="43.60727" lon="6.56186">
        <ele>396.7</ele>
        <time>2012-03-21T16:05:20Z</time>
      </trkpt>
      <trkpt lat="43.6072" lon="6.56192">
        <ele>396.8</ele>
        <time>2012-03-21T16:05:27Z</time>
      </trkpt>
      <trkpt lat="43.60713" lon="6.56199">
        <ele>396.8</ele>
        <time>2012-03-21T16:05:34Z</time>
      </trkpt>
      <trkpt lat="43.60706" lon="6.56205">
        <ele>396.7</ele>
        <time>2012-03-21T16:05:41Z</time>
      </trkpt>
      <trkpt lat="43.60698" lon="6.56209">
        <ele>396.5</ele>
        <time>2012-03-21T16:05:48Z</time>
      </trkpt>
      <trkpt lat="43.6069" lon="6.56211">
        <ele>396.7</ele>
        <time>2012-03-21T16:05:56Z</time>
      </trkpt>
      <trkpt lat="43.60682" lon="6.56212">
        <ele>397.4</ele>
        <time>2012-03-21T16:06:02Z</time>
      </trkpt>
      <trkpt lat="43.60673" lon="6.56214">
        <ele>396.9</ele>
        <time>2012-03-21T16:06:09Z</time>
      </trkpt>
      <trkpt lat="43.60672" lon="6.56215">
        <ele>397</ele>
        <time>2012-03-21T16:06:10Z</time>
      </trkpt>
      <trkpt lat="43.60657" lon="6.56218">
        <ele>396.1</ele>
        <time>2012-03-21T16:06:24Z</time>
      </trkpt>
      <trkpt lat="43.60648" lon="6.56219">
        <ele>397.5</ele>
        <time>2012-03-21T16:06:32Z</time>
      </trkpt>
      <trkpt lat="43.6064" lon="6.56221">
        <ele>396.7</ele>
        <time>2012-03-21T16:06:40Z</time>
      </trkpt>
      <trkpt lat="43.60631" lon="6.56223">
        <ele>397.7</ele>
        <time>2012-03-21T16:06:47Z</time>
      </trkpt>
      <trkpt lat="43.60623" lon="6.56224">
        <ele>397</ele>
        <time>2012-03-21T16:06:54Z</time>
      </trkpt>
      <trkpt lat="43.60614" lon="6.56227">
        <ele>397.8</ele>
        <time>2012-03-21T16:07:01Z</time>
      </trkpt>
      <trkpt lat="43.60606" lon="6.56229">
        <ele>398.5</ele>
        <time>2012-03-21T16:07:08Z</time>
      </trkpt>
      <trkpt lat="43.60598" lon="6.56233">
        <ele>398.5</ele>
        <time>2012-03-21T16:07:15Z</time>
      </trkpt>
      <trkpt lat="43.60597" lon="6.56233">
        <ele>398.7</ele>
        <time>2012-03-21T16:07:16Z</time>
      </trkpt>
      <trkpt lat="43.60583" lon="6.56241">
        <ele>399.5</ele>
        <time>2012-03-21T16:07:29Z</time>
      </trkpt>
      <trkpt lat="43.60575" lon="6.56246">
        <ele>399.9</ele>
        <time>2012-03-21T16:07:36Z</time>
      </trkpt>
      <trkpt lat="43.60568" lon="6.56253">
        <ele>400.6</ele>
        <time>2012-03-21T16:07:44Z</time>
      </trkpt>
      <trkpt lat="43.60561" lon="6.56259">
        <ele>399.6</ele>
        <time>2012-03-21T16:07:51Z</time>
      </trkpt>
      <trkpt lat="43.60554" lon="6.56265">
        <ele>401</ele>
        <time>2012-03-21T16:07:59Z</time>
      </trkpt>
      <trkpt lat="43.60547" lon="6.56274">
        <ele>400.8</ele>
        <time>2012-03-21T16:08:07Z</time>
      </trkpt>
      <trkpt lat="43.60541" lon="6.56282">
        <ele>400.2</ele>
        <time>2012-03-21T16:08:15Z</time>
      </trkpt>
      <trkpt lat="43.60535" lon="6.56291">
        <ele>400.2</ele>
        <time>2012-03-21T16:08:23Z</time>
      </trkpt>
      <trkpt lat="43.60534" lon="6.56292">
        <ele>400.4</ele>
        <time>2012-03-21T16:08:24Z</time>
      </trkpt>
      <trkpt lat="43.60523" lon="6.56308">
        <ele>400</ele>
        <time>2012-03-21T16:08:37Z</time>
      </trkpt>
      <trkpt lat="43.60517" lon="6.56316">
        <ele>400.6</ele>
        <time>2012-03-21T16:08:44Z</time>
      </trkpt>
      <trkpt lat="43.6051" lon="6.56324">
        <ele>400.7</ele>
        <time>2012-03-21T16:08:52Z</time>
      </trkpt>
      <trkpt lat="43.60504" lon="6.56332">
        <ele>401.9</ele>
        <time>2012-03-21T16:08:59Z</time>
      </trkpt>
      <trkpt lat="43.60498" lon="6.5634">
        <ele>402.4</ele>
        <time>2012-03-21T16:09:06Z</time>
      </trkpt>
      <trkpt lat="43.60492" lon="6.56348">
        <ele>401.8</ele>
        <time>2012-03-21T16:09:13Z</time>
      </trkpt>
      <trkpt lat="43.60487" lon="6.56356">
        <ele>403</ele>
        <time>2012-03-21T16:09:20Z</time>
      </trkpt>
      <trkpt lat="43.60484" lon="6.56367">
        <ele>403.6</ele>
        <time>2012-03-21T16:09:29Z</time>
      </trkpt>
      <trkpt lat="43.60483" lon="6.56368">
        <ele>403.9</ele>
        <time>2012-03-21T16:09:30Z</time>
      </trkpt>
      <trkpt lat="43.60474" lon="6.56384">
        <ele>404.2</ele>
        <time>2012-03-21T16:09:42Z</time>
      </trkpt>
      <trkpt lat="43.60467" lon="6.56391">
        <ele>404.2</ele>
        <time>2012-03-21T16:09:48Z</time>
      </trkpt>
      <trkpt lat="43.60461" lon="6.56398">
        <ele>404.2</ele>
        <time>2012-03-21T16:09:54Z</time>
      </trkpt>
      <trkpt lat="43.60455" lon="6.56406">
        <ele>403.3</ele>
        <time>2012-03-21T16:10:01Z</time>
      </trkpt>
      <trkpt lat="43.60449" lon="6.56414">
        <ele>403.7</ele>
        <time>2012-03-21T16:10:08Z</time>
      </trkpt>
      <trkpt lat="43.60443" lon="6.56422">
        <ele>403.6</ele>
        <time>2012-03-21T16:10:15Z</time>
      </trkpt>
      <trkpt lat="43.60438" lon="6.56429">
        <ele>403.9</ele>
        <time>2012-03-21T16:10:21Z</time>
      </trkpt>
      <trkpt lat="43.60432" lon="6.56438">
        <ele>404.8</ele>
        <time>2012-03-21T16:10:28Z</time>
      </trkpt>
      <trkpt lat="43.60425" lon="6.56445">
        <ele>404.9</ele>
        <time>2012-03-21T16:10:35Z</time>
      </trkpt>
      <trkpt lat="43.60424" lon="6.56446">
        <ele>404.8</ele>
        <time>2012-03-21T16:10:36Z</time>
      </trkpt>
      <trkpt lat="43.60412" lon="6.56458">
        <ele>405.8</ele>
        <time>2012-03-21T16:10:47Z</time>
      </trkpt>
      <trkpt lat="43.60406" lon="6.56466">
        <ele>404.5</ele>
        <time>2012-03-21T16:10:53Z</time>
      </trkpt>
      <trkpt lat="43.60399" lon="6.56473">
        <ele>404.8</ele>
        <time>2012-03-21T16:11:02Z</time>
      </trkpt>
      <trkpt lat="43.60393" lon="6.56482">
        <ele>404.7</ele>
        <time>2012-03-21T16:11:10Z</time>
      </trkpt>
      <trkpt lat="43.60386" lon="6.56488">
        <ele>405</ele>
        <time>2012-03-21T16:11:17Z</time>
      </trkpt>
      <trkpt lat="43.60378" lon="6.56494">
        <ele>404.8</ele>
        <time>2012-03-21T16:11:27Z</time>
      </trkpt>
      <trkpt lat="43.60371" lon="6.56498">
        <ele>405.5</ele>
        <time>2012-03-21T16:11:34Z</time>
      </trkpt>
      <trkpt lat="43.60363" lon="6.56501">
        <ele>405.1</ele>
        <time>2012-03-21T16:11:41Z</time>
      </trkpt>
      <trkpt lat="43.60362" lon="6.56501">
        <ele>405.4</ele>
        <time>2012-03-21T16:11:42Z</time>
      </trkpt>
      <trkpt lat="43.60347" lon="6.56508">
        <ele>405</ele>
        <time>2012-03-21T16:11:55Z</time>
      </trkpt>
      <trkpt lat="43.60339" lon="6.56511">
        <ele>404.6</ele>
        <time>2012-03-21T16:12:02Z</time>
      </trkpt>
      <trkpt lat="43.60331" lon="6.56515">
        <ele>404.9</ele>
        <time>2012-03-21T16:12:08Z</time>
      </trkpt>
      <trkpt lat="43.60324" lon="6.56519">
        <ele>406</ele>
        <time>2012-03-21T16:12:15Z</time>
      </trkpt>
      <trkpt lat="43.60316" lon="6.56522">
        <ele>405.1</ele>
        <time>2012-03-21T16:12:21Z</time>
      </trkpt>
      <trkpt lat="43.60309" lon="6.56527">
        <ele>405.6</ele>
        <time>2012-03-21T16:12:28Z</time>
      </trkpt>
      <trkpt lat="43.60301" lon="6.56531">
        <ele>405.2</ele>
        <time>2012-03-21T16:12:36Z</time>
      </trkpt>
      <trkpt lat="43.60294" lon="6.56536">
        <ele>405.5</ele>
        <time>2012-03-21T16:12:43Z</time>
      </trkpt>
      <trkpt lat="43.60293" lon="6.56537">
        <ele>405.5</ele>
        <time>2012-03-21T16:12:44Z</time>
      </trkpt>
      <trkpt lat="43.60279" lon="6.56546">
        <ele>405.5</ele>
        <time>2012-03-21T16:12:57Z</time>
      </trkpt>
      <trkpt lat="43.60271" lon="6.5655">
        <ele>406.4</ele>
        <time>2012-03-21T16:13:08Z</time>
      </trkpt>
      <trkpt lat="43.60264" lon="6.56557">
        <ele>408</ele>
        <time>2012-03-21T16:13:17Z</time>
      </trkpt>
      <trkpt lat="43.60257" lon="6.56562">
        <ele>407.8</ele>
        <time>2012-03-21T16:13:26Z</time>
      </trkpt>
      <trkpt lat="43.60249" lon="6.56566">
        <ele>408.9</ele>
        <time>2012-03-21T16:13:37Z</time>
      </trkpt>
      <trkpt lat="43.60241" lon="6.56571">
        <ele>410.1</ele>
        <time>2012-03-21T16:13:48Z</time>
      </trkpt>
      <trkpt lat="43.60241" lon="6.56572">
        <ele>410.1</ele>
        <time>2012-03-21T16:13:49Z</time>
      </trkpt>
      <trkpt lat="43.60226" lon="6.5658">
        <ele>412.4</ele>
        <time>2012-03-21T16:14:14Z</time>
      </trkpt>
      <trkpt lat="43.60217" lon="6.56578">
        <ele>413.8</ele>
        <time>2012-03-21T16:14:58Z</time>
      </trkpt>
      <trkpt lat="43.60217" lon="6.56578">
        <ele>413.7</ele>
        <time>2012-03-21T16:14:59Z</time>
      </trkpt>
    </trkseg>
  </trk>
</gpx>